<?xml version="1.0" encoding="UTF-8" standalone="no" ?>
<gpx xmlns="http://www.topografix.com/GPX/1/1" xmlns:xsi="http://www.w3.org/2001/XMLSchema-instance" xsi:schemaLocation="http://www.topografix.com/GPX/1/1 http://www.topografix.com/GPX/1/1/gpx.xsd" version="1.1" creator="VisuGPX - https://www.visugpx.com">
  <metadata>
    <name>les Eygaux</name>
    <desc><![CDATA[Sortie VTT RSPG :Au départ du Parking Parcours sportifs Les Eygaux Village Aspremont,le Chevallet et Aspres /Buech et retour par Aiguebelle]]></desc>
  </metadata>
  <trk>
    <name><![CDATA[ACTIVE LOG 011]]></name>
    <trkseg>
      <trkpt lat="44.52611" lon="5.78763">
        <ele>932.135498</ele>
        <time>2013-05-07T07:43:02Z</time>
      </trkpt>
      <trkpt lat="44.52592" lon="5.78865">
        <ele>932.135498</ele>
        <time>2013-05-07T07:43:28Z</time>
      </trkpt>
      <trkpt lat="44.52598" lon="5.7888">
        <ele>931.6547852</ele>
        <time>2013-05-07T07:43:46Z</time>
      </trkpt>
      <trkpt lat="44.52597" lon="5.78878">
        <ele>932.135498</ele>
        <time>2013-05-07T07:44:07Z</time>
      </trkpt>
      <trkpt lat="44.52596" lon="5.78878">
        <ele>931.6547852</ele>
        <time>2013-05-07T07:44:26Z</time>
      </trkpt>
      <trkpt lat="44.52595" lon="5.78879">
        <ele>931.6547852</ele>
        <time>2013-05-07T07:44:40Z</time>
      </trkpt>
      <trkpt lat="44.52594" lon="5.7888">
        <ele>931.6547852</ele>
        <time>2013-05-07T07:45:16Z</time>
      </trkpt>
      <trkpt lat="44.52594" lon="5.78879">
        <ele>933.5773926</ele>
        <time>2013-05-07T07:45:27Z</time>
      </trkpt>
      <trkpt lat="44.52593" lon="5.78881">
        <ele>936.9418945</ele>
        <time>2013-05-07T07:45:41Z</time>
      </trkpt>
      <trkpt lat="44.52593" lon="5.78884">
        <ele>939.8259277</ele>
        <time>2013-05-07T07:45:53Z</time>
      </trkpt>
      <trkpt lat="44.52594" lon="5.78885">
        <ele>943.1906738</ele>
        <time>2013-05-07T07:46:16Z</time>
      </trkpt>
      <trkpt lat="44.52593" lon="5.78885">
        <ele>945.1132813</ele>
        <time>2013-05-07T07:47:08Z</time>
      </trkpt>
      <trkpt lat="44.52593" lon="5.78882">
        <ele>945.1132813</ele>
        <time>2013-05-07T07:47:24Z</time>
      </trkpt>
      <trkpt lat="44.52592" lon="5.78883">
        <ele>945.5939941</ele>
        <time>2013-05-07T07:48:02Z</time>
      </trkpt>
      <trkpt lat="44.52592" lon="5.78883">
        <ele>945.1132813</ele>
        <time>2013-05-07T07:48:12Z</time>
      </trkpt>
      <trkpt lat="44.52586" lon="5.78868">
        <ele>945.1132813</ele>
        <time>2013-05-07T07:48:24Z</time>
      </trkpt>
      <trkpt lat="44.52589" lon="5.78869">
        <ele>945.5939941</ele>
        <time>2013-05-07T07:48:58Z</time>
      </trkpt>
      <trkpt lat="44.52592" lon="5.7887">
        <ele>945.5939941</ele>
        <time>2013-05-07T07:49:01Z</time>
      </trkpt>
      <trkpt lat="44.52594" lon="5.78883">
        <ele>945.5939941</ele>
        <time>2013-05-07T07:49:09Z</time>
      </trkpt>
      <trkpt lat="44.52581" lon="5.78903">
        <ele>946.074707</ele>
        <time>2013-05-07T07:49:24Z</time>
      </trkpt>
      <trkpt lat="44.5258" lon="5.78906">
        <ele>946.074707</ele>
        <time>2013-05-07T07:49:28Z</time>
      </trkpt>
      <trkpt lat="44.52571" lon="5.78938">
        <ele>946.074707</ele>
        <time>2013-05-07T07:49:41Z</time>
      </trkpt>
      <trkpt lat="44.52564" lon="5.78976">
        <ele>946.074707</ele>
        <time>2013-05-07T07:49:54Z</time>
      </trkpt>
      <trkpt lat="44.52536" lon="5.78969">
        <ele>946.5554199</ele>
        <time>2013-05-07T07:50:07Z</time>
      </trkpt>
      <trkpt lat="44.52493" lon="5.78949">
        <ele>947.0358887</ele>
        <time>2013-05-07T07:50:25Z</time>
      </trkpt>
      <trkpt lat="44.52469" lon="5.78939">
        <ele>947.5166016</ele>
        <time>2013-05-07T07:50:35Z</time>
      </trkpt>
      <trkpt lat="44.52443" lon="5.78928">
        <ele>947.5166016</ele>
        <time>2013-05-07T07:50:46Z</time>
      </trkpt>
      <trkpt lat="44.52433" lon="5.78925">
        <ele>947.9973145</ele>
        <time>2013-05-07T07:50:50Z</time>
      </trkpt>
      <trkpt lat="44.52424" lon="5.78926">
        <ele>948.4777832</ele>
        <time>2013-05-07T07:50:54Z</time>
      </trkpt>
      <trkpt lat="44.52408" lon="5.7892">
        <ele>947.9973145</ele>
        <time>2013-05-07T07:51:02Z</time>
      </trkpt>
      <trkpt lat="44.52392" lon="5.78909">
        <ele>948.4777832</ele>
        <time>2013-05-07T07:51:10Z</time>
      </trkpt>
      <trkpt lat="44.52371" lon="5.78883">
        <ele>948.4777832</ele>
        <time>2013-05-07T07:51:22Z</time>
      </trkpt>
      <trkpt lat="44.52369" lon="5.78881">
        <ele>947.9973145</ele>
        <time>2013-05-07T07:51:23Z</time>
      </trkpt>
      <trkpt lat="44.52348" lon="5.7886">
        <ele>948.4777832</ele>
        <time>2013-05-07T07:51:36Z</time>
      </trkpt>
      <trkpt lat="44.52328" lon="5.78827">
        <ele>948.4777832</ele>
        <time>2013-05-07T07:51:49Z</time>
      </trkpt>
      <trkpt lat="44.52323" lon="5.78817">
        <ele>948.4777832</ele>
        <time>2013-05-07T07:51:54Z</time>
      </trkpt>
      <trkpt lat="44.52304" lon="5.78787">
        <ele>949.439209</ele>
        <time>2013-05-07T07:52:08Z</time>
      </trkpt>
      <trkpt lat="44.52286" lon="5.78772">
        <ele>949.439209</ele>
        <time>2013-05-07T07:52:20Z</time>
      </trkpt>
      <trkpt lat="44.5227" lon="5.78762">
        <ele>948.9584961</ele>
        <time>2013-05-07T07:52:27Z</time>
      </trkpt>
      <trkpt lat="44.52242" lon="5.78734">
        <ele>948.4777832</ele>
        <time>2013-05-07T07:52:41Z</time>
      </trkpt>
      <trkpt lat="44.52229" lon="5.78703">
        <ele>948.9584961</ele>
        <time>2013-05-07T07:52:52Z</time>
      </trkpt>
      <trkpt lat="44.52215" lon="5.78668">
        <ele>948.4777832</ele>
        <time>2013-05-07T07:53:04Z</time>
      </trkpt>
      <trkpt lat="44.52201" lon="5.78646">
        <ele>948.4777832</ele>
        <time>2013-05-07T07:53:14Z</time>
      </trkpt>
      <trkpt lat="44.52195" lon="5.78635">
        <ele>947.9973145</ele>
        <time>2013-05-07T07:53:20Z</time>
      </trkpt>
      <trkpt lat="44.52172" lon="5.78587">
        <ele>947.0358887</ele>
        <time>2013-05-07T07:53:36Z</time>
      </trkpt>
      <trkpt lat="44.52147" lon="5.78556">
        <ele>946.5554199</ele>
        <time>2013-05-07T07:53:46Z</time>
      </trkpt>
      <trkpt lat="44.52122" lon="5.7853">
        <ele>946.5554199</ele>
        <time>2013-05-07T07:53:57Z</time>
      </trkpt>
      <trkpt lat="44.52087" lon="5.78497">
        <ele>947.0358887</ele>
        <time>2013-05-07T07:54:14Z</time>
      </trkpt>
      <trkpt lat="44.5206" lon="5.78466">
        <ele>945.5939941</ele>
        <time>2013-05-07T07:54:25Z</time>
      </trkpt>
      <trkpt lat="44.52042" lon="5.78409">
        <ele>944.6325684</ele>
        <time>2013-05-07T07:54:40Z</time>
      </trkpt>
      <trkpt lat="44.52031" lon="5.78378">
        <ele>944.6325684</ele>
        <time>2013-05-07T07:54:50Z</time>
      </trkpt>
      <trkpt lat="44.52018" lon="5.7834">
        <ele>944.6325684</ele>
        <time>2013-05-07T07:55:00Z</time>
      </trkpt>
      <trkpt lat="44.52004" lon="5.783">
        <ele>944.6325684</ele>
        <time>2013-05-07T07:55:11Z</time>
      </trkpt>
      <trkpt lat="44.51994" lon="5.78262">
        <ele>943.6713867</ele>
        <time>2013-05-07T07:55:20Z</time>
      </trkpt>
      <trkpt lat="44.51982" lon="5.78232">
        <ele>943.6713867</ele>
        <time>2013-05-07T07:55:29Z</time>
      </trkpt>
      <trkpt lat="44.51979" lon="5.78231">
        <ele>943.6713867</ele>
        <time>2013-05-07T07:55:31Z</time>
      </trkpt>
      <trkpt lat="44.51949" lon="5.78245">
        <ele>942.7102051</ele>
        <time>2013-05-07T07:55:42Z</time>
      </trkpt>
      <trkpt lat="44.51941" lon="5.78252">
        <ele>943.1906738</ele>
        <time>2013-05-07T07:55:52Z</time>
      </trkpt>
      <trkpt lat="44.51942" lon="5.78251">
        <ele>942.7102051</ele>
        <time>2013-05-07T07:56:00Z</time>
      </trkpt>
      <trkpt lat="44.51945" lon="5.78244">
        <ele>943.1906738</ele>
        <time>2013-05-07T07:56:05Z</time>
      </trkpt>
      <trkpt lat="44.51968" lon="5.78234">
        <ele>943.6713867</ele>
        <time>2013-05-07T07:56:16Z</time>
      </trkpt>
      <trkpt lat="44.51983" lon="5.78224">
        <ele>944.6325684</ele>
        <time>2013-05-07T07:56:23Z</time>
      </trkpt>
      <trkpt lat="44.52014" lon="5.78217">
        <ele>944.6325684</ele>
        <time>2013-05-07T07:56:35Z</time>
      </trkpt>
      <trkpt lat="44.52023" lon="5.78215">
        <ele>945.1132813</ele>
        <time>2013-05-07T07:56:39Z</time>
      </trkpt>
      <trkpt lat="44.5206" lon="5.78204">
        <ele>945.5939941</ele>
        <time>2013-05-07T07:56:54Z</time>
      </trkpt>
      <trkpt lat="44.52092" lon="5.78201">
        <ele>945.5939941</ele>
        <time>2013-05-07T07:57:06Z</time>
      </trkpt>
      <trkpt lat="44.52129" lon="5.78181">
        <ele>946.074707</ele>
        <time>2013-05-07T07:57:21Z</time>
      </trkpt>
      <trkpt lat="44.52129" lon="5.7818">
        <ele>946.074707</ele>
        <time>2013-05-07T07:57:22Z</time>
      </trkpt>
      <trkpt lat="44.52119" lon="5.78145">
        <ele>945.1132813</ele>
        <time>2013-05-07T07:57:30Z</time>
      </trkpt>
      <trkpt lat="44.52108" lon="5.78088">
        <ele>944.6325684</ele>
        <time>2013-05-07T07:57:43Z</time>
      </trkpt>
      <trkpt lat="44.52099" lon="5.78045">
        <ele>944.1520996</ele>
        <time>2013-05-07T07:57:54Z</time>
      </trkpt>
      <trkpt lat="44.52082" lon="5.77977">
        <ele>943.6713867</ele>
        <time>2013-05-07T07:58:10Z</time>
      </trkpt>
      <trkpt lat="44.5207" lon="5.77915">
        <ele>943.6713867</ele>
        <time>2013-05-07T07:58:25Z</time>
      </trkpt>
      <trkpt lat="44.52057" lon="5.77855">
        <ele>943.1906738</ele>
        <time>2013-05-07T07:58:40Z</time>
      </trkpt>
      <trkpt lat="44.52044" lon="5.77809">
        <ele>943.1906738</ele>
        <time>2013-05-07T07:58:53Z</time>
      </trkpt>
      <trkpt lat="44.5203" lon="5.77773">
        <ele>943.6713867</ele>
        <time>2013-05-07T07:59:05Z</time>
      </trkpt>
      <trkpt lat="44.5201" lon="5.77724">
        <ele>943.1906738</ele>
        <time>2013-05-07T07:59:18Z</time>
      </trkpt>
      <trkpt lat="44.51983" lon="5.7766">
        <ele>943.6713867</ele>
        <time>2013-05-07T07:59:35Z</time>
      </trkpt>
      <trkpt lat="44.51952" lon="5.77585">
        <ele>942.7102051</ele>
        <time>2013-05-07T07:59:54Z</time>
      </trkpt>
      <trkpt lat="44.51938" lon="5.77552">
        <ele>942.2294922</ele>
        <time>2013-05-07T08:00:06Z</time>
      </trkpt>
      <trkpt lat="44.51923" lon="5.77518">
        <ele>941.2680664</ele>
        <time>2013-05-07T08:00:13Z</time>
      </trkpt>
      <trkpt lat="44.51904" lon="5.77472">
        <ele>940.7873535</ele>
        <time>2013-05-07T08:00:25Z</time>
      </trkpt>
      <trkpt lat="44.51882" lon="5.77425">
        <ele>939.3452148</ele>
        <time>2013-05-07T08:00:37Z</time>
      </trkpt>
      <trkpt lat="44.51851" lon="5.77359">
        <ele>938.8647461</ele>
        <time>2013-05-07T08:00:52Z</time>
      </trkpt>
      <trkpt lat="44.51844" lon="5.77346">
        <ele>938.8647461</ele>
        <time>2013-05-07T08:00:55Z</time>
      </trkpt>
      <trkpt lat="44.51837" lon="5.77327">
        <ele>938.3840332</ele>
        <time>2013-05-07T08:00:59Z</time>
      </trkpt>
      <trkpt lat="44.51809" lon="5.77254">
        <ele>937.4226074</ele>
        <time>2013-05-07T08:01:15Z</time>
      </trkpt>
      <trkpt lat="44.51776" lon="5.7718">
        <ele>935.5</ele>
        <time>2013-05-07T08:01:32Z</time>
      </trkpt>
      <trkpt lat="44.51749" lon="5.77118">
        <ele>935.0195313</ele>
        <time>2013-05-07T08:01:48Z</time>
      </trkpt>
      <trkpt lat="44.51731" lon="5.77078">
        <ele>934.0581055</ele>
        <time>2013-05-07T08:01:58Z</time>
      </trkpt>
      <trkpt lat="44.51702" lon="5.77007">
        <ele>933.0966797</ele>
        <time>2013-05-07T08:02:16Z</time>
      </trkpt>
      <trkpt lat="44.51677" lon="5.76963">
        <ele>931.1743164</ele>
        <time>2013-05-07T08:02:28Z</time>
      </trkpt>
      <trkpt lat="44.51661" lon="5.76938">
        <ele>930.6936035</ele>
        <time>2013-05-07T08:02:34Z</time>
      </trkpt>
      <trkpt lat="44.51634" lon="5.76903">
        <ele>928.7709961</ele>
        <time>2013-05-07T08:02:45Z</time>
      </trkpt>
      <trkpt lat="44.51583" lon="5.76882">
        <ele>927.3291016</ele>
        <time>2013-05-07T08:03:00Z</time>
      </trkpt>
      <trkpt lat="44.51563" lon="5.76846">
        <ele>924.4450684</ele>
        <time>2013-05-07T08:03:09Z</time>
      </trkpt>
      <trkpt lat="44.51549" lon="5.7683">
        <ele>922.0415039</ele>
        <time>2013-05-07T08:03:12Z</time>
      </trkpt>
      <trkpt lat="44.51526" lon="5.76797">
        <ele>918.677002</ele>
        <time>2013-05-07T08:03:18Z</time>
      </trkpt>
      <trkpt lat="44.51522" lon="5.76791">
        <ele>918.677002</ele>
        <time>2013-05-07T08:03:19Z</time>
      </trkpt>
      <trkpt lat="44.51512" lon="5.76777">
        <ele>917.7155762</ele>
        <time>2013-05-07T08:03:22Z</time>
      </trkpt>
      <trkpt lat="44.51494" lon="5.76746">
        <ele>914.8317871</ele>
        <time>2013-05-07T08:03:29Z</time>
      </trkpt>
      <trkpt lat="44.51488" lon="5.7673">
        <ele>913.8703613</ele>
        <time>2013-05-07T08:03:33Z</time>
      </trkpt>
      <trkpt lat="44.51486" lon="5.76715">
        <ele>912.9091797</ele>
        <time>2013-05-07T08:03:37Z</time>
      </trkpt>
      <trkpt lat="44.51488" lon="5.76683">
        <ele>910.5058594</ele>
        <time>2013-05-07T08:03:43Z</time>
      </trkpt>
      <trkpt lat="44.51486" lon="5.76665">
        <ele>910.0251465</ele>
        <time>2013-05-07T08:03:46Z</time>
      </trkpt>
      <trkpt lat="44.51496" lon="5.76605">
        <ele>906.1796875</ele>
        <time>2013-05-07T08:03:57Z</time>
      </trkpt>
      <trkpt lat="44.51502" lon="5.76589">
        <ele>905.2185059</ele>
        <time>2013-05-07T08:04:00Z</time>
      </trkpt>
      <trkpt lat="44.5152" lon="5.76542">
        <ele>901.8540039</ele>
        <time>2013-05-07T08:04:09Z</time>
      </trkpt>
      <trkpt lat="44.51535" lon="5.76495">
        <ele>898.4892578</ele>
        <time>2013-05-07T08:04:18Z</time>
      </trkpt>
      <trkpt lat="44.51537" lon="5.76481">
        <ele>897.0473633</ele>
        <time>2013-05-07T08:04:21Z</time>
      </trkpt>
      <trkpt lat="44.51546" lon="5.76428">
        <ele>895.1247559</ele>
        <time>2013-05-07T08:04:31Z</time>
      </trkpt>
      <trkpt lat="44.5154" lon="5.76418">
        <ele>893.6828613</ele>
        <time>2013-05-07T08:04:38Z</time>
      </trkpt>
      <trkpt lat="44.51538" lon="5.76421">
        <ele>893.2021484</ele>
        <time>2013-05-07T08:04:39Z</time>
      </trkpt>
      <trkpt lat="44.51536" lon="5.76435">
        <ele>893.2021484</ele>
        <time>2013-05-07T08:04:42Z</time>
      </trkpt>
      <trkpt lat="44.51533" lon="5.76446">
        <ele>892.2409668</ele>
        <time>2013-05-07T08:04:44Z</time>
      </trkpt>
      <trkpt lat="44.51524" lon="5.76469">
        <ele>891.2792969</ele>
        <time>2013-05-07T08:04:48Z</time>
      </trkpt>
      <trkpt lat="44.51513" lon="5.76489">
        <ele>888.8762207</ele>
        <time>2013-05-07T08:04:51Z</time>
      </trkpt>
      <trkpt lat="44.51496" lon="5.76514">
        <ele>888.3955078</ele>
        <time>2013-05-07T08:04:56Z</time>
      </trkpt>
      <trkpt lat="44.51481" lon="5.76496">
        <ele>888.3955078</ele>
        <time>2013-05-07T08:05:02Z</time>
      </trkpt>
      <trkpt lat="44.51472" lon="5.76469">
        <ele>886.4729004</ele>
        <time>2013-05-07T08:05:07Z</time>
      </trkpt>
      <trkpt lat="44.51467" lon="5.76459">
        <ele>885.5114746</ele>
        <time>2013-05-07T08:05:09Z</time>
      </trkpt>
      <trkpt lat="44.51455" lon="5.76447">
        <ele>884.0695801</ele>
        <time>2013-05-07T08:05:12Z</time>
      </trkpt>
      <trkpt lat="44.5144" lon="5.76433">
        <ele>881.6662598</ele>
        <time>2013-05-07T08:05:16Z</time>
      </trkpt>
      <trkpt lat="44.51432" lon="5.76425">
        <ele>881.185791</ele>
        <time>2013-05-07T08:05:18Z</time>
      </trkpt>
      <trkpt lat="44.51415" lon="5.76416">
        <ele>878.7824707</ele>
        <time>2013-05-07T08:05:22Z</time>
      </trkpt>
      <trkpt lat="44.51402" lon="5.76412">
        <ele>877.8210449</ele>
        <time>2013-05-07T08:05:25Z</time>
      </trkpt>
      <trkpt lat="44.51391" lon="5.76409">
        <ele>876.3791504</ele>
        <time>2013-05-07T08:05:28Z</time>
      </trkpt>
      <trkpt lat="44.51387" lon="5.76406">
        <ele>875.8981934</ele>
        <time>2013-05-07T08:05:29Z</time>
      </trkpt>
      <trkpt lat="44.5137" lon="5.76384">
        <ele>873.0144043</ele>
        <time>2013-05-07T08:05:35Z</time>
      </trkpt>
      <trkpt lat="44.51365" lon="5.76373">
        <ele>872.5336914</ele>
        <time>2013-05-07T08:05:37Z</time>
      </trkpt>
      <trkpt lat="44.51354" lon="5.76344">
        <ele>869.6499023</ele>
        <time>2013-05-07T08:05:42Z</time>
      </trkpt>
      <trkpt lat="44.51327" lon="5.76339">
        <ele>866.7658691</ele>
        <time>2013-05-07T08:05:49Z</time>
      </trkpt>
      <trkpt lat="44.51288" lon="5.76355">
        <ele>861.9594727</ele>
        <time>2013-05-07T08:05:57Z</time>
      </trkpt>
      <trkpt lat="44.51278" lon="5.7636">
        <ele>860.9980469</ele>
        <time>2013-05-07T08:05:59Z</time>
      </trkpt>
      <trkpt lat="44.51253" lon="5.76362">
        <ele>857.6333008</ele>
        <time>2013-05-07T08:06:04Z</time>
      </trkpt>
      <trkpt lat="44.51247" lon="5.76362">
        <ele>857.6333008</ele>
        <time>2013-05-07T08:06:05Z</time>
      </trkpt>
      <trkpt lat="44.51218" lon="5.76364">
        <ele>854.2687988</ele>
        <time>2013-05-07T08:06:10Z</time>
      </trkpt>
      <trkpt lat="44.51207" lon="5.76364">
        <ele>853.307373</ele>
        <time>2013-05-07T08:06:12Z</time>
      </trkpt>
      <trkpt lat="44.51191" lon="5.76364">
        <ele>851.3847656</ele>
        <time>2013-05-07T08:06:15Z</time>
      </trkpt>
      <trkpt lat="44.51168" lon="5.76365">
        <ele>848.5007324</ele>
        <time>2013-05-07T08:06:19Z</time>
      </trkpt>
      <trkpt lat="44.51139" lon="5.76381">
        <ele>844.6555176</ele>
        <time>2013-05-07T08:06:25Z</time>
      </trkpt>
      <trkpt lat="44.51134" lon="5.76383">
        <ele>844.6555176</ele>
        <time>2013-05-07T08:06:26Z</time>
      </trkpt>
      <trkpt lat="44.5111" lon="5.76392">
        <ele>841.7714844</ele>
        <time>2013-05-07T08:06:30Z</time>
      </trkpt>
      <trkpt lat="44.51093" lon="5.76394">
        <ele>839.848877</ele>
        <time>2013-05-07T08:06:33Z</time>
      </trkpt>
      <trkpt lat="44.51083" lon="5.76394">
        <ele>838.4069824</ele>
        <time>2013-05-07T08:06:35Z</time>
      </trkpt>
      <trkpt lat="44.5103" lon="5.76393">
        <ele>835.5229492</ele>
        <time>2013-05-07T08:06:47Z</time>
      </trkpt>
      <trkpt lat="44.50989" lon="5.76394">
        <ele>832.1584473</ele>
        <time>2013-05-07T08:06:55Z</time>
      </trkpt>
      <trkpt lat="44.50984" lon="5.76394">
        <ele>832.1584473</ele>
        <time>2013-05-07T08:06:56Z</time>
      </trkpt>
      <trkpt lat="44.50973" lon="5.76394">
        <ele>831.6777344</ele>
        <time>2013-05-07T08:06:58Z</time>
      </trkpt>
      <trkpt lat="44.50925" lon="5.76408">
        <ele>828.7939453</ele>
        <time>2013-05-07T08:07:07Z</time>
      </trkpt>
      <trkpt lat="44.50877" lon="5.764">
        <ele>824.4677734</ele>
        <time>2013-05-07T08:07:16Z</time>
      </trkpt>
      <trkpt lat="44.50871" lon="5.76398">
        <ele>824.4677734</ele>
        <time>2013-05-07T08:07:17Z</time>
      </trkpt>
      <trkpt lat="44.50859" lon="5.76395">
        <ele>823.0258789</ele>
        <time>2013-05-07T08:07:19Z</time>
      </trkpt>
      <trkpt lat="44.50833" lon="5.76389">
        <ele>819.661377</ele>
        <time>2013-05-07T08:07:23Z</time>
      </trkpt>
      <trkpt lat="44.50828" lon="5.76387">
        <ele>819.661377</ele>
        <time>2013-05-07T08:07:24Z</time>
      </trkpt>
      <trkpt lat="44.50807" lon="5.76352">
        <ele>815.3354492</ele>
        <time>2013-05-07T08:07:31Z</time>
      </trkpt>
      <trkpt lat="44.50787" lon="5.76351">
        <ele>814.8547363</ele>
        <time>2013-05-07T08:07:39Z</time>
      </trkpt>
      <trkpt lat="44.50767" lon="5.76341">
        <ele>816.7773438</ele>
        <time>2013-05-07T08:07:47Z</time>
      </trkpt>
      <trkpt lat="44.50743" lon="5.76334">
        <ele>820.1418457</ele>
        <time>2013-05-07T08:08:02Z</time>
      </trkpt>
      <trkpt lat="44.5072" lon="5.76327">
        <ele>821.5837402</ele>
        <time>2013-05-07T08:08:23Z</time>
      </trkpt>
      <trkpt lat="44.5072" lon="5.76327">
        <ele>823.5065918</ele>
        <time>2013-05-07T08:10:17Z</time>
      </trkpt>
      <trkpt lat="44.5072" lon="5.76327">
        <ele>823.0258789</ele>
        <time>2013-05-07T08:10:24Z</time>
      </trkpt>
      <trkpt lat="44.5072" lon="5.76327">
        <ele>823.5065918</ele>
        <time>2013-05-07T08:10:34Z</time>
      </trkpt>
      <trkpt lat="44.50698" lon="5.76314">
        <ele>823.5065918</ele>
        <time>2013-05-07T08:12:12Z</time>
      </trkpt>
      <trkpt lat="44.50689" lon="5.7631">
        <ele>822.0644531</ele>
        <time>2013-05-07T08:12:15Z</time>
      </trkpt>
      <trkpt lat="44.50673" lon="5.76304">
        <ele>823.9870605</ele>
        <time>2013-05-07T08:12:20Z</time>
      </trkpt>
      <trkpt lat="44.50628" lon="5.76284">
        <ele>824.4677734</ele>
        <time>2013-05-07T08:12:38Z</time>
      </trkpt>
      <trkpt lat="44.5058" lon="5.76255">
        <ele>824.4677734</ele>
        <time>2013-05-07T08:12:59Z</time>
      </trkpt>
      <trkpt lat="44.50534" lon="5.76201">
        <ele>823.9870605</ele>
        <time>2013-05-07T08:13:16Z</time>
      </trkpt>
      <trkpt lat="44.50486" lon="5.76159">
        <ele>823.9870605</ele>
        <time>2013-05-07T08:13:35Z</time>
      </trkpt>
      <trkpt lat="44.5044" lon="5.76121">
        <ele>820.1418457</ele>
        <time>2013-05-07T08:13:47Z</time>
      </trkpt>
      <trkpt lat="44.5043" lon="5.76116">
        <ele>819.1806641</ele>
        <time>2013-05-07T08:13:49Z</time>
      </trkpt>
      <trkpt lat="44.50401" lon="5.76102">
        <ele>816.2966309</ele>
        <time>2013-05-07T08:13:55Z</time>
      </trkpt>
      <trkpt lat="44.50395" lon="5.761">
        <ele>816.2966309</ele>
        <time>2013-05-07T08:13:56Z</time>
      </trkpt>
      <trkpt lat="44.50364" lon="5.76091">
        <ele>815.3354492</ele>
        <time>2013-05-07T08:14:02Z</time>
      </trkpt>
      <trkpt lat="44.50325" lon="5.76046">
        <ele>816.7773438</ele>
        <time>2013-05-07T08:14:16Z</time>
      </trkpt>
      <trkpt lat="44.50296" lon="5.76004">
        <ele>818.2192383</ele>
        <time>2013-05-07T08:14:31Z</time>
      </trkpt>
      <trkpt lat="44.50269" lon="5.75966">
        <ele>819.661377</ele>
        <time>2013-05-07T08:14:49Z</time>
      </trkpt>
      <trkpt lat="44.50248" lon="5.75971">
        <ele>821.5837402</ele>
        <time>2013-05-07T08:15:00Z</time>
      </trkpt>
      <trkpt lat="44.50227" lon="5.75998">
        <ele>822.545166</ele>
        <time>2013-05-07T08:15:13Z</time>
      </trkpt>
      <trkpt lat="44.50198" lon="5.76051">
        <ele>822.0644531</ele>
        <time>2013-05-07T08:15:32Z</time>
      </trkpt>
      <trkpt lat="44.5016" lon="5.76084">
        <ele>820.6225586</ele>
        <time>2013-05-07T08:15:41Z</time>
      </trkpt>
      <trkpt lat="44.50121" lon="5.7611">
        <ele>821.5837402</ele>
        <time>2013-05-07T08:15:55Z</time>
      </trkpt>
      <trkpt lat="44.50121" lon="5.7611">
        <ele>822.0644531</ele>
        <time>2013-05-07T08:16:44Z</time>
      </trkpt>
      <trkpt lat="44.50148" lon="5.76095">
        <ele>821.5837402</ele>
        <time>2013-05-07T08:16:57Z</time>
      </trkpt>
      <trkpt lat="44.50183" lon="5.76063">
        <ele>821.5837402</ele>
        <time>2013-05-07T08:17:11Z</time>
      </trkpt>
      <trkpt lat="44.50201" lon="5.76044">
        <ele>823.5065918</ele>
        <time>2013-05-07T08:17:26Z</time>
      </trkpt>
      <trkpt lat="44.50201" lon="5.76044">
        <ele>823.5065918</ele>
        <time>2013-05-07T08:17:46Z</time>
      </trkpt>
      <trkpt lat="44.50201" lon="5.76044">
        <ele>823.9870605</ele>
        <time>2013-05-07T08:18:19Z</time>
      </trkpt>
      <trkpt lat="44.50201" lon="5.76044">
        <ele>824.4677734</ele>
        <time>2013-05-07T08:18:42Z</time>
      </trkpt>
      <trkpt lat="44.50234" lon="5.7599">
        <ele>823.0258789</ele>
        <time>2013-05-07T08:18:56Z</time>
      </trkpt>
      <trkpt lat="44.50265" lon="5.75947">
        <ele>822.0644531</ele>
        <time>2013-05-07T08:19:09Z</time>
      </trkpt>
      <trkpt lat="44.50265" lon="5.75947">
        <ele>822.545166</ele>
        <time>2013-05-07T08:19:13Z</time>
      </trkpt>
      <trkpt lat="44.50265" lon="5.75947">
        <ele>824.9484863</ele>
        <time>2013-05-07T08:19:32Z</time>
      </trkpt>
      <trkpt lat="44.50265" lon="5.75947">
        <ele>828.3132324</ele>
        <time>2013-05-07T08:19:51Z</time>
      </trkpt>
      <trkpt lat="44.50265" lon="5.75947">
        <ele>831.1972656</ele>
        <time>2013-05-07T08:20:11Z</time>
      </trkpt>
      <trkpt lat="44.50265" lon="5.75947">
        <ele>834.5617676</ele>
        <time>2013-05-07T08:20:30Z</time>
      </trkpt>
      <trkpt lat="44.50265" lon="5.75947">
        <ele>837.9262695</ele>
        <time>2013-05-07T08:20:51Z</time>
      </trkpt>
      <trkpt lat="44.50258" lon="5.7582">
        <ele>841.2907715</ele>
        <time>2013-05-07T08:21:10Z</time>
      </trkpt>
      <trkpt lat="44.50258" lon="5.7582">
        <ele>844.1750488</ele>
        <time>2013-05-07T08:21:31Z</time>
      </trkpt>
      <trkpt lat="44.50258" lon="5.7582">
        <ele>847.5395508</ele>
        <time>2013-05-07T08:21:50Z</time>
      </trkpt>
      <trkpt lat="44.50258" lon="5.7582">
        <ele>850.423584</ele>
        <time>2013-05-07T08:22:10Z</time>
      </trkpt>
      <trkpt lat="44.50258" lon="5.7582">
        <ele>850.9040527</ele>
        <time>2013-05-07T08:22:15Z</time>
      </trkpt>
      <trkpt lat="44.50258" lon="5.7582">
        <ele>854.2687988</ele>
        <time>2013-05-07T08:22:42Z</time>
      </trkpt>
      <trkpt lat="44.50266" lon="5.75666">
        <ele>856.671875</ele>
        <time>2013-05-07T08:23:05Z</time>
      </trkpt>
      <trkpt lat="44.50269" lon="5.75632">
        <ele>859.0751953</ele>
        <time>2013-05-07T08:23:30Z</time>
      </trkpt>
      <trkpt lat="44.50269" lon="5.75599">
        <ele>861.9594727</ele>
        <time>2013-05-07T08:23:56Z</time>
      </trkpt>
      <trkpt lat="44.50269" lon="5.75599">
        <ele>864.8432617</ele>
        <time>2013-05-07T08:24:18Z</time>
      </trkpt>
      <trkpt lat="44.50269" lon="5.75599">
        <ele>868.2077637</ele>
        <time>2013-05-07T08:24:41Z</time>
      </trkpt>
      <trkpt lat="44.50269" lon="5.75599">
        <ele>871.0917969</ele>
        <time>2013-05-07T08:25:02Z</time>
      </trkpt>
      <trkpt lat="44.50269" lon="5.75472">
        <ele>873.9755859</ele>
        <time>2013-05-07T08:25:26Z</time>
      </trkpt>
      <trkpt lat="44.50269" lon="5.75472">
        <ele>876.3791504</ele>
        <time>2013-05-07T08:25:53Z</time>
      </trkpt>
      <trkpt lat="44.50269" lon="5.75472">
        <ele>877.8210449</ele>
        <time>2013-05-07T08:26:04Z</time>
      </trkpt>
      <trkpt lat="44.50269" lon="5.75472">
        <ele>878.3017578</ele>
        <time>2013-05-07T08:26:07Z</time>
      </trkpt>
      <trkpt lat="44.50269" lon="5.75472">
        <ele>879.2629395</ele>
        <time>2013-05-07T08:26:24Z</time>
      </trkpt>
      <trkpt lat="44.50269" lon="5.75472">
        <ele>879.2629395</ele>
        <time>2013-05-07T08:26:32Z</time>
      </trkpt>
      <trkpt lat="44.50243" lon="5.7542">
        <ele>881.185791</ele>
        <time>2013-05-07T08:26:45Z</time>
      </trkpt>
      <trkpt lat="44.50221" lon="5.75436">
        <ele>883.1081543</ele>
        <time>2013-05-07T08:27:01Z</time>
      </trkpt>
      <trkpt lat="44.50203" lon="5.7545">
        <ele>885.9921875</ele>
        <time>2013-05-07T08:27:18Z</time>
      </trkpt>
      <trkpt lat="44.50203" lon="5.7545">
        <ele>885.9921875</ele>
        <time>2013-05-07T08:27:19Z</time>
      </trkpt>
      <trkpt lat="44.50178" lon="5.75491">
        <ele>887.434082</ele>
        <time>2013-05-07T08:27:40Z</time>
      </trkpt>
      <trkpt lat="44.50171" lon="5.75503">
        <ele>889.3566895</ele>
        <time>2013-05-07T08:27:56Z</time>
      </trkpt>
      <trkpt lat="44.50152" lon="5.75559">
        <ele>891.2792969</ele>
        <time>2013-05-07T08:28:14Z</time>
      </trkpt>
      <trkpt lat="44.50135" lon="5.75592">
        <ele>893.6828613</ele>
        <time>2013-05-07T08:28:33Z</time>
      </trkpt>
      <trkpt lat="44.50117" lon="5.75632">
        <ele>894.644043</ele>
        <time>2013-05-07T08:28:51Z</time>
      </trkpt>
      <trkpt lat="44.50101" lon="5.7568">
        <ele>896.5668945</ele>
        <time>2013-05-07T08:29:10Z</time>
      </trkpt>
      <trkpt lat="44.50081" lon="5.75709">
        <ele>897.5280762</ele>
        <time>2013-05-07T08:29:25Z</time>
      </trkpt>
      <trkpt lat="44.50061" lon="5.75722">
        <ele>897.0473633</ele>
        <time>2013-05-07T08:29:36Z</time>
      </trkpt>
      <trkpt lat="44.50042" lon="5.75732">
        <ele>896.0861816</ele>
        <time>2013-05-07T08:29:46Z</time>
      </trkpt>
      <trkpt lat="44.50031" lon="5.75737">
        <ele>895.1247559</ele>
        <time>2013-05-07T08:29:52Z</time>
      </trkpt>
      <trkpt lat="44.50017" lon="5.75744">
        <ele>895.6054688</ele>
        <time>2013-05-07T08:30:03Z</time>
      </trkpt>
      <trkpt lat="44.50013" lon="5.75746">
        <ele>895.6054688</ele>
        <time>2013-05-07T08:30:17Z</time>
      </trkpt>
      <trkpt lat="44.50013" lon="5.75746">
        <ele>895.6054688</ele>
        <time>2013-05-07T08:30:37Z</time>
      </trkpt>
      <trkpt lat="44.50013" lon="5.75746">
        <ele>896.0861816</ele>
        <time>2013-05-07T08:30:49Z</time>
      </trkpt>
      <trkpt lat="44.4997" lon="5.75774">
        <ele>895.6054688</ele>
        <time>2013-05-07T08:31:02Z</time>
      </trkpt>
      <trkpt lat="44.49932" lon="5.75802">
        <ele>896.5668945</ele>
        <time>2013-05-07T08:31:18Z</time>
      </trkpt>
      <trkpt lat="44.49907" lon="5.75823">
        <ele>896.5668945</ele>
        <time>2013-05-07T08:31:32Z</time>
      </trkpt>
      <trkpt lat="44.49899" lon="5.75829">
        <ele>897.0473633</ele>
        <time>2013-05-07T08:31:50Z</time>
      </trkpt>
      <trkpt lat="44.49899" lon="5.75829">
        <ele>897.0473633</ele>
        <time>2013-05-07T08:32:40Z</time>
      </trkpt>
      <trkpt lat="44.49865" lon="5.75833">
        <ele>896.0861816</ele>
        <time>2013-05-07T08:32:52Z</time>
      </trkpt>
      <trkpt lat="44.49813" lon="5.75845">
        <ele>893.2021484</ele>
        <time>2013-05-07T08:33:06Z</time>
      </trkpt>
      <trkpt lat="44.49759" lon="5.7586">
        <ele>891.7600098</ele>
        <time>2013-05-07T08:33:22Z</time>
      </trkpt>
      <trkpt lat="44.49751" lon="5.75856">
        <ele>891.2792969</ele>
        <time>2013-05-07T08:33:24Z</time>
      </trkpt>
      <trkpt lat="44.49723" lon="5.75857">
        <ele>887.9147949</ele>
        <time>2013-05-07T08:33:31Z</time>
      </trkpt>
      <trkpt lat="44.49708" lon="5.75855">
        <ele>885.9921875</ele>
        <time>2013-05-07T08:33:35Z</time>
      </trkpt>
      <trkpt lat="44.49696" lon="5.7585">
        <ele>884.550293</ele>
        <time>2013-05-07T08:33:39Z</time>
      </trkpt>
      <trkpt lat="44.4967" lon="5.75838">
        <ele>881.6662598</ele>
        <time>2013-05-07T08:33:46Z</time>
      </trkpt>
      <trkpt lat="44.49635" lon="5.75837">
        <ele>878.7824707</ele>
        <time>2013-05-07T08:33:53Z</time>
      </trkpt>
      <trkpt lat="44.49625" lon="5.75839">
        <ele>877.8210449</ele>
        <time>2013-05-07T08:33:55Z</time>
      </trkpt>
      <trkpt lat="44.49577" lon="5.75848">
        <ele>877.3405762</ele>
        <time>2013-05-07T08:34:05Z</time>
      </trkpt>
      <trkpt lat="44.49553" lon="5.75849">
        <ele>876.3791504</ele>
        <time>2013-05-07T08:34:10Z</time>
      </trkpt>
      <trkpt lat="44.49529" lon="5.75836">
        <ele>871.5722656</ele>
        <time>2013-05-07T08:34:15Z</time>
      </trkpt>
      <trkpt lat="44.49523" lon="5.75833">
        <ele>871.5722656</ele>
        <time>2013-05-07T08:34:16Z</time>
      </trkpt>
      <trkpt lat="44.49466" lon="5.75831">
        <ele>869.1691895</ele>
        <time>2013-05-07T08:34:26Z</time>
      </trkpt>
      <trkpt lat="44.49423" lon="5.75828">
        <ele>868.6884766</ele>
        <time>2013-05-07T08:34:35Z</time>
      </trkpt>
      <trkpt lat="44.49388" lon="5.7581">
        <ele>865.3239746</ele>
        <time>2013-05-07T08:34:42Z</time>
      </trkpt>
      <trkpt lat="44.49374" lon="5.75802">
        <ele>864.3625488</ele>
        <time>2013-05-07T08:34:44Z</time>
      </trkpt>
      <trkpt lat="44.4936" lon="5.75793">
        <ele>862.4399414</ele>
        <time>2013-05-07T08:34:46Z</time>
      </trkpt>
      <trkpt lat="44.49338" lon="5.7578">
        <ele>860.517334</ele>
        <time>2013-05-07T08:34:49Z</time>
      </trkpt>
      <trkpt lat="44.49324" lon="5.75772">
        <ele>859.5559082</ele>
        <time>2013-05-07T08:34:51Z</time>
      </trkpt>
      <trkpt lat="44.49317" lon="5.75768">
        <ele>859.0751953</ele>
        <time>2013-05-07T08:34:52Z</time>
      </trkpt>
      <trkpt lat="44.49278" lon="5.7575">
        <ele>856.671875</ele>
        <time>2013-05-07T08:34:57Z</time>
      </trkpt>
      <trkpt lat="44.4927" lon="5.75747">
        <ele>856.671875</ele>
        <time>2013-05-07T08:34:58Z</time>
      </trkpt>
      <trkpt lat="44.49255" lon="5.75741">
        <ele>854.7492676</ele>
        <time>2013-05-07T08:35:00Z</time>
      </trkpt>
      <trkpt lat="44.49239" lon="5.75735">
        <ele>853.7880859</ele>
        <time>2013-05-07T08:35:02Z</time>
      </trkpt>
      <trkpt lat="44.49217" lon="5.75727">
        <ele>851.3847656</ele>
        <time>2013-05-07T08:35:05Z</time>
      </trkpt>
      <trkpt lat="44.49202" lon="5.75722">
        <ele>850.9040527</ele>
        <time>2013-05-07T08:35:07Z</time>
      </trkpt>
      <trkpt lat="44.49147" lon="5.75699">
        <ele>848.9814453</ele>
        <time>2013-05-07T08:35:17Z</time>
      </trkpt>
      <trkpt lat="44.49134" lon="5.75696">
        <ele>847.5395508</ele>
        <time>2013-05-07T08:35:29Z</time>
      </trkpt>
      <trkpt lat="44.49116" lon="5.7569">
        <ele>845.6169434</ele>
        <time>2013-05-07T08:35:58Z</time>
      </trkpt>
      <trkpt lat="44.49084" lon="5.75675">
        <ele>842.2521973</ele>
        <time>2013-05-07T08:36:05Z</time>
      </trkpt>
      <trkpt lat="44.49072" lon="5.75671">
        <ele>840.8100586</ele>
        <time>2013-05-07T08:36:07Z</time>
      </trkpt>
      <trkpt lat="44.49064" lon="5.75669">
        <ele>838.4069824</ele>
        <time>2013-05-07T08:36:11Z</time>
      </trkpt>
      <trkpt lat="44.49032" lon="5.75653">
        <ele>837.4455566</ele>
        <time>2013-05-07T08:36:14Z</time>
      </trkpt>
      <trkpt lat="44.48973" lon="5.75643">
        <ele>836.484375</ele>
        <time>2013-05-07T08:36:24Z</time>
      </trkpt>
      <trkpt lat="44.48933" lon="5.75643">
        <ele>836.0036621</ele>
        <time>2013-05-07T08:36:36Z</time>
      </trkpt>
      <trkpt lat="44.48912" lon="5.75643">
        <ele>835.5229492</ele>
        <time>2013-05-07T08:36:41Z</time>
      </trkpt>
      <trkpt lat="44.48861" lon="5.75649">
        <ele>832.6391602</ele>
        <time>2013-05-07T08:36:52Z</time>
      </trkpt>
      <trkpt lat="44.48819" lon="5.75651">
        <ele>828.7939453</ele>
        <time>2013-05-07T08:37:03Z</time>
      </trkpt>
      <trkpt lat="44.48799" lon="5.75651">
        <ele>826.3903809</ele>
        <time>2013-05-07T08:37:09Z</time>
      </trkpt>
      <trkpt lat="44.48774" lon="5.7565">
        <ele>822.545166</ele>
        <time>2013-05-07T08:37:18Z</time>
      </trkpt>
      <trkpt lat="44.4875" lon="5.75648">
        <ele>819.661377</ele>
        <time>2013-05-07T08:37:27Z</time>
      </trkpt>
      <trkpt lat="44.48747" lon="5.75648">
        <ele>819.661377</ele>
        <time>2013-05-07T08:37:28Z</time>
      </trkpt>
      <trkpt lat="44.48723" lon="5.75647">
        <ele>816.2966309</ele>
        <time>2013-05-07T08:37:35Z</time>
      </trkpt>
      <trkpt lat="44.48697" lon="5.75654">
        <ele>812.451416</ele>
        <time>2013-05-07T08:37:42Z</time>
      </trkpt>
      <trkpt lat="44.48693" lon="5.75655">
        <ele>812.451416</ele>
        <time>2013-05-07T08:37:43Z</time>
      </trkpt>
      <trkpt lat="44.48678" lon="5.75657">
        <ele>810.5285645</ele>
        <time>2013-05-07T08:37:47Z</time>
      </trkpt>
      <trkpt lat="44.48668" lon="5.75658">
        <ele>808.605957</ele>
        <time>2013-05-07T08:37:50Z</time>
      </trkpt>
      <trkpt lat="44.48645" lon="5.7566">
        <ele>804.7607422</ele>
        <time>2013-05-07T08:37:57Z</time>
      </trkpt>
      <trkpt lat="44.48637" lon="5.75661">
        <ele>803.7995605</ele>
        <time>2013-05-07T08:37:59Z</time>
      </trkpt>
      <trkpt lat="44.48611" lon="5.75661">
        <ele>798.9929199</ele>
        <time>2013-05-07T08:38:05Z</time>
      </trkpt>
      <trkpt lat="44.48606" lon="5.75661">
        <ele>798.9929199</ele>
        <time>2013-05-07T08:38:06Z</time>
      </trkpt>
      <trkpt lat="44.48586" lon="5.7566">
        <ele>797.0703125</ele>
        <time>2013-05-07T08:38:10Z</time>
      </trkpt>
      <trkpt lat="44.48571" lon="5.75661">
        <ele>795.1474609</ele>
        <time>2013-05-07T08:38:13Z</time>
      </trkpt>
      <trkpt lat="44.48557" lon="5.75661">
        <ele>794.1862793</ele>
        <time>2013-05-07T08:38:16Z</time>
      </trkpt>
      <trkpt lat="44.48548" lon="5.75662">
        <ele>793.2248535</ele>
        <time>2013-05-07T08:38:18Z</time>
      </trkpt>
      <trkpt lat="44.48538" lon="5.75662">
        <ele>792.2636719</ele>
        <time>2013-05-07T08:38:20Z</time>
      </trkpt>
      <trkpt lat="44.48534" lon="5.75662">
        <ele>791.3022461</ele>
        <time>2013-05-07T08:38:21Z</time>
      </trkpt>
      <trkpt lat="44.48526" lon="5.75663">
        <ele>790.8215332</ele>
        <time>2013-05-07T08:38:23Z</time>
      </trkpt>
      <trkpt lat="44.485" lon="5.75666">
        <ele>788.418457</ele>
        <time>2013-05-07T08:38:29Z</time>
      </trkpt>
      <trkpt lat="44.4848" lon="5.75669">
        <ele>785.0539551</ele>
        <time>2013-05-07T08:38:35Z</time>
      </trkpt>
      <trkpt lat="44.48456" lon="5.75669">
        <ele>782.1699219</ele>
        <time>2013-05-07T08:38:43Z</time>
      </trkpt>
      <trkpt lat="44.4843" lon="5.75671">
        <ele>778.3244629</ele>
        <time>2013-05-07T08:38:51Z</time>
      </trkpt>
      <trkpt lat="44.48428" lon="5.75671">
        <ele>778.3244629</ele>
        <time>2013-05-07T08:38:52Z</time>
      </trkpt>
      <trkpt lat="44.4842" lon="5.75664">
        <ele>776.8825684</ele>
        <time>2013-05-07T08:38:57Z</time>
      </trkpt>
      <trkpt lat="44.48424" lon="5.75656">
        <ele>775.9211426</ele>
        <time>2013-05-07T08:39:00Z</time>
      </trkpt>
      <trkpt lat="44.48437" lon="5.75624">
        <ele>773.5180664</ele>
        <time>2013-05-07T08:39:07Z</time>
      </trkpt>
      <trkpt lat="44.48441" lon="5.75601">
        <ele>770.1533203</ele>
        <time>2013-05-07T08:39:10Z</time>
      </trkpt>
      <trkpt lat="44.48442" lon="5.75593">
        <ele>770.1533203</ele>
        <time>2013-05-07T08:39:11Z</time>
      </trkpt>
      <trkpt lat="44.48445" lon="5.75578">
        <ele>768.2307129</ele>
        <time>2013-05-07T08:39:13Z</time>
      </trkpt>
      <trkpt lat="44.48448" lon="5.75559">
        <ele>766.7888184</ele>
        <time>2013-05-07T08:39:15Z</time>
      </trkpt>
      <trkpt lat="44.48447" lon="5.75528">
        <ele>762.9433594</ele>
        <time>2013-05-07T08:39:21Z</time>
      </trkpt>
      <trkpt lat="44.48454" lon="5.75506">
        <ele>762.4626465</ele>
        <time>2013-05-07T08:39:24Z</time>
      </trkpt>
      <trkpt lat="44.48454" lon="5.75506">
        <ele>761.020752</ele>
        <time>2013-05-07T08:39:27Z</time>
      </trkpt>
      <trkpt lat="44.4848" lon="5.75488">
        <ele>761.020752</ele>
        <time>2013-05-07T08:39:30Z</time>
      </trkpt>
      <trkpt lat="44.48493" lon="5.75482">
        <ele>760.0593262</ele>
        <time>2013-05-07T08:39:33Z</time>
      </trkpt>
      <trkpt lat="44.48546" lon="5.75479">
        <ele>761.9821777</ele>
        <time>2013-05-07T08:39:48Z</time>
      </trkpt>
      <trkpt lat="44.4858" lon="5.75474">
        <ele>763.4240723</ele>
        <time>2013-05-07T08:40:01Z</time>
      </trkpt>
      <trkpt lat="44.48605" lon="5.75472">
        <ele>764.8662109</ele>
        <time>2013-05-07T08:40:14Z</time>
      </trkpt>
      <trkpt lat="44.48641" lon="5.7546">
        <ele>766.7888184</ele>
        <time>2013-05-07T08:40:33Z</time>
      </trkpt>
      <trkpt lat="44.48666" lon="5.7545">
        <ele>768.2307129</ele>
        <time>2013-05-07T08:40:48Z</time>
      </trkpt>
      <trkpt lat="44.48692" lon="5.75441">
        <ele>770.6340332</ele>
        <time>2013-05-07T08:41:05Z</time>
      </trkpt>
      <trkpt lat="44.48724" lon="5.75427">
        <ele>771.5952148</ele>
        <time>2013-05-07T08:41:22Z</time>
      </trkpt>
      <trkpt lat="44.48767" lon="5.75412">
        <ele>771.1147461</ele>
        <time>2013-05-07T08:41:38Z</time>
      </trkpt>
      <trkpt lat="44.48813" lon="5.75396">
        <ele>770.6340332</ele>
        <time>2013-05-07T08:41:56Z</time>
      </trkpt>
      <trkpt lat="44.48848" lon="5.75382">
        <ele>770.1533203</ele>
        <time>2013-05-07T08:42:09Z</time>
      </trkpt>
      <trkpt lat="44.48893" lon="5.75364">
        <ele>770.6340332</ele>
        <time>2013-05-07T08:42:28Z</time>
      </trkpt>
      <trkpt lat="44.48935" lon="5.75351">
        <ele>772.0759277</ele>
        <time>2013-05-07T08:42:47Z</time>
      </trkpt>
      <trkpt lat="44.48977" lon="5.75345">
        <ele>772.0759277</ele>
        <time>2013-05-07T08:43:06Z</time>
      </trkpt>
      <trkpt lat="44.49012" lon="5.75347">
        <ele>771.5952148</ele>
        <time>2013-05-07T08:43:23Z</time>
      </trkpt>
      <trkpt lat="44.49043" lon="5.75353">
        <ele>770.6340332</ele>
        <time>2013-05-07T08:43:36Z</time>
      </trkpt>
      <trkpt lat="44.49045" lon="5.75354">
        <ele>770.6340332</ele>
        <time>2013-05-07T08:43:37Z</time>
      </trkpt>
      <trkpt lat="44.49083" lon="5.75357">
        <ele>772.5566406</ele>
        <time>2013-05-07T08:43:54Z</time>
      </trkpt>
      <trkpt lat="44.49114" lon="5.75354">
        <ele>774.9599609</ele>
        <time>2013-05-07T08:44:11Z</time>
      </trkpt>
      <trkpt lat="44.49159" lon="5.75358">
        <ele>773.0373535</ele>
        <time>2013-05-07T08:44:30Z</time>
      </trkpt>
      <trkpt lat="44.4921" lon="5.75342">
        <ele>774.9599609</ele>
        <time>2013-05-07T08:44:49Z</time>
      </trkpt>
      <trkpt lat="44.49239" lon="5.75345">
        <ele>775.9211426</ele>
        <time>2013-05-07T08:45:03Z</time>
      </trkpt>
      <trkpt lat="44.4928" lon="5.75349">
        <ele>777.3632813</ele>
        <time>2013-05-07T08:45:22Z</time>
      </trkpt>
      <trkpt lat="44.49314" lon="5.75351">
        <ele>779.2856445</ele>
        <time>2013-05-07T08:45:40Z</time>
      </trkpt>
      <trkpt lat="44.49342" lon="5.75337">
        <ele>778.3244629</ele>
        <time>2013-05-07T08:45:56Z</time>
      </trkpt>
      <trkpt lat="44.49353" lon="5.7533">
        <ele>774.9599609</ele>
        <time>2013-05-07T08:46:05Z</time>
      </trkpt>
      <trkpt lat="44.49355" lon="5.75314">
        <ele>771.1147461</ele>
        <time>2013-05-07T08:46:13Z</time>
      </trkpt>
      <trkpt lat="44.49356" lon="5.75299">
        <ele>769.1921387</ele>
        <time>2013-05-07T08:46:18Z</time>
      </trkpt>
      <trkpt lat="44.49354" lon="5.7528">
        <ele>765.3469238</ele>
        <time>2013-05-07T08:46:24Z</time>
      </trkpt>
      <trkpt lat="44.49354" lon="5.75276">
        <ele>765.3469238</ele>
        <time>2013-05-07T08:46:25Z</time>
      </trkpt>
      <trkpt lat="44.49353" lon="5.75253">
        <ele>761.9821777</ele>
        <time>2013-05-07T08:46:32Z</time>
      </trkpt>
      <trkpt lat="44.49352" lon="5.75247">
        <ele>761.9821777</ele>
        <time>2013-05-07T08:46:33Z</time>
      </trkpt>
      <trkpt lat="44.49351" lon="5.75227">
        <ele>759.0981445</ele>
        <time>2013-05-07T08:46:38Z</time>
      </trkpt>
      <trkpt lat="44.4935" lon="5.75223">
        <ele>758.6174316</ele>
        <time>2013-05-07T08:46:39Z</time>
      </trkpt>
      <trkpt lat="44.4935" lon="5.75217">
        <ele>758.6174316</ele>
        <time>2013-05-07T08:46:40Z</time>
      </trkpt>
      <trkpt lat="44.49348" lon="5.75191">
        <ele>756.2141113</ele>
        <time>2013-05-07T08:46:44Z</time>
      </trkpt>
      <trkpt lat="44.49343" lon="5.75166">
        <ele>753.8110352</ele>
        <time>2013-05-07T08:46:47Z</time>
      </trkpt>
      <trkpt lat="44.49338" lon="5.75151">
        <ele>753.3303223</ele>
        <time>2013-05-07T08:46:49Z</time>
      </trkpt>
      <trkpt lat="44.49326" lon="5.75103">
        <ele>749.4851074</ele>
        <time>2013-05-07T08:46:55Z</time>
      </trkpt>
      <trkpt lat="44.49324" lon="5.75094">
        <ele>749.4851074</ele>
        <time>2013-05-07T08:46:56Z</time>
      </trkpt>
      <trkpt lat="44.49308" lon="5.75035">
        <ele>746.6010742</ele>
        <time>2013-05-07T08:47:03Z</time>
      </trkpt>
      <trkpt lat="44.49289" lon="5.74945">
        <ele>743.717041</ele>
        <time>2013-05-07T08:47:13Z</time>
      </trkpt>
      <trkpt lat="44.49287" lon="5.74936">
        <ele>743.717041</ele>
        <time>2013-05-07T08:47:14Z</time>
      </trkpt>
      <trkpt lat="44.4925" lon="5.74791">
        <ele>740.8330078</ele>
        <time>2013-05-07T08:47:32Z</time>
      </trkpt>
      <trkpt lat="44.49233" lon="5.74753">
        <ele>739.8718262</ele>
        <time>2013-05-07T08:47:37Z</time>
      </trkpt>
      <trkpt lat="44.49225" lon="5.74713">
        <ele>739.8718262</ele>
        <time>2013-05-07T08:47:42Z</time>
      </trkpt>
      <trkpt lat="44.49203" lon="5.74595">
        <ele>738.4299316</ele>
        <time>2013-05-07T08:47:58Z</time>
      </trkpt>
      <trkpt lat="44.49155" lon="5.74523">
        <ele>734.1040039</ele>
        <time>2013-05-07T08:48:09Z</time>
      </trkpt>
      <trkpt lat="44.4915" lon="5.74516">
        <ele>734.1040039</ele>
        <time>2013-05-07T08:48:10Z</time>
      </trkpt>
      <trkpt lat="44.4913" lon="5.74497">
        <ele>733.623291</ele>
        <time>2013-05-07T08:48:14Z</time>
      </trkpt>
      <trkpt lat="44.49112" lon="5.74465">
        <ele>734.1040039</ele>
        <time>2013-05-07T08:48:19Z</time>
      </trkpt>
      <trkpt lat="44.49106" lon="5.74452">
        <ele>735.0654297</ele>
        <time>2013-05-07T08:48:23Z</time>
      </trkpt>
      <trkpt lat="44.49105" lon="5.7445">
        <ele>735.0654297</ele>
        <time>2013-05-07T08:48:38Z</time>
      </trkpt>
      <trkpt lat="44.49105" lon="5.7445">
        <ele>734.5847168</ele>
        <time>2013-05-07T08:49:26Z</time>
      </trkpt>
      <trkpt lat="44.49105" lon="5.7445">
        <ele>736.0266113</ele>
        <time>2013-05-07T08:50:37Z</time>
      </trkpt>
      <trkpt lat="44.49105" lon="5.7445">
        <ele>736.0266113</ele>
        <time>2013-05-07T08:50:39Z</time>
      </trkpt>
      <trkpt lat="44.49133" lon="5.74381">
        <ele>735.0654297</ele>
        <time>2013-05-07T08:50:54Z</time>
      </trkpt>
      <trkpt lat="44.4914" lon="5.74364">
        <ele>735.5458984</ele>
        <time>2013-05-07T08:50:57Z</time>
      </trkpt>
      <trkpt lat="44.49185" lon="5.74256">
        <ele>735.0654297</ele>
        <time>2013-05-07T08:51:17Z</time>
      </trkpt>
      <trkpt lat="44.49197" lon="5.74215">
        <ele>735.0654297</ele>
        <time>2013-05-07T08:51:33Z</time>
      </trkpt>
      <trkpt lat="44.49207" lon="5.74153">
        <ele>734.1040039</ele>
        <time>2013-05-07T08:51:49Z</time>
      </trkpt>
      <trkpt lat="44.49199" lon="5.7405">
        <ele>731.2199707</ele>
        <time>2013-05-07T08:52:08Z</time>
      </trkpt>
      <trkpt lat="44.49182" lon="5.73902">
        <ele>728.3359375</ele>
        <time>2013-05-07T08:52:29Z</time>
      </trkpt>
      <trkpt lat="44.4917" lon="5.73743">
        <ele>728.8166504</ele>
        <time>2013-05-07T08:52:54Z</time>
      </trkpt>
      <trkpt lat="44.4916" lon="5.73598">
        <ele>727.3747559</ele>
        <time>2013-05-07T08:53:20Z</time>
      </trkpt>
      <trkpt lat="44.49154" lon="5.73507">
        <ele>724.0100098</ele>
        <time>2013-05-07T08:53:32Z</time>
      </trkpt>
      <trkpt lat="44.49136" lon="5.73381">
        <ele>722.5681152</ele>
        <time>2013-05-07T08:53:49Z</time>
      </trkpt>
      <trkpt lat="44.49117" lon="5.73249">
        <ele>721.6066895</ele>
        <time>2013-05-07T08:54:08Z</time>
      </trkpt>
      <trkpt lat="44.49115" lon="5.73121">
        <ele>719.2036133</ele>
        <time>2013-05-07T08:54:25Z</time>
      </trkpt>
      <trkpt lat="44.49126" lon="5.72957">
        <ele>718.7229004</ele>
        <time>2013-05-07T08:54:48Z</time>
      </trkpt>
      <trkpt lat="44.49126" lon="5.72918">
        <ele>720.1647949</ele>
        <time>2013-05-07T08:54:57Z</time>
      </trkpt>
      <trkpt lat="44.49126" lon="5.72916">
        <ele>720.1647949</ele>
        <time>2013-05-07T08:54:59Z</time>
      </trkpt>
      <trkpt lat="44.49122" lon="5.72903">
        <ele>719.2036133</ele>
        <time>2013-05-07T08:55:10Z</time>
      </trkpt>
      <trkpt lat="44.4912" lon="5.729">
        <ele>719.2036133</ele>
        <time>2013-05-07T08:55:14Z</time>
      </trkpt>
      <trkpt lat="44.49112" lon="5.72881">
        <ele>719.6843262</ele>
        <time>2013-05-07T08:55:22Z</time>
      </trkpt>
      <trkpt lat="44.49109" lon="5.72871">
        <ele>720.1647949</ele>
        <time>2013-05-07T08:55:27Z</time>
      </trkpt>
      <trkpt lat="44.4913" lon="5.72838">
        <ele>720.6455078</ele>
        <time>2013-05-07T08:55:34Z</time>
      </trkpt>
      <trkpt lat="44.49194" lon="5.72822">
        <ele>720.1647949</ele>
        <time>2013-05-07T08:55:50Z</time>
      </trkpt>
      <trkpt lat="44.49198" lon="5.72823">
        <ele>720.1647949</ele>
        <time>2013-05-07T08:55:51Z</time>
      </trkpt>
      <trkpt lat="44.49271" lon="5.72848">
        <ele>720.1647949</ele>
        <time>2013-05-07T08:56:11Z</time>
      </trkpt>
      <trkpt lat="44.49302" lon="5.72858">
        <ele>720.1647949</ele>
        <time>2013-05-07T08:56:23Z</time>
      </trkpt>
      <trkpt lat="44.49353" lon="5.72876">
        <ele>721.1262207</ele>
        <time>2013-05-07T08:56:40Z</time>
      </trkpt>
      <trkpt lat="44.49363" lon="5.72877">
        <ele>721.6066895</ele>
        <time>2013-05-07T08:56:44Z</time>
      </trkpt>
      <trkpt lat="44.49366" lon="5.72859">
        <ele>722.0874023</ele>
        <time>2013-05-07T08:56:48Z</time>
      </trkpt>
      <trkpt lat="44.49377" lon="5.7281">
        <ele>724.4907227</ele>
        <time>2013-05-07T08:57:04Z</time>
      </trkpt>
      <trkpt lat="44.49398" lon="5.72731">
        <ele>727.3747559</ele>
        <time>2013-05-07T08:57:29Z</time>
      </trkpt>
      <trkpt lat="44.49417" lon="5.72687">
        <ele>728.8166504</ele>
        <time>2013-05-07T08:57:45Z</time>
      </trkpt>
      <trkpt lat="44.49452" lon="5.72649">
        <ele>731.2199707</ele>
        <time>2013-05-07T08:58:04Z</time>
      </trkpt>
      <trkpt lat="44.49479" lon="5.72609">
        <ele>733.1425781</ele>
        <time>2013-05-07T08:58:22Z</time>
      </trkpt>
      <trkpt lat="44.49497" lon="5.7255">
        <ele>735.5458984</ele>
        <time>2013-05-07T08:58:42Z</time>
      </trkpt>
      <trkpt lat="44.49507" lon="5.72498">
        <ele>736.5073242</ele>
        <time>2013-05-07T08:59:00Z</time>
      </trkpt>
      <trkpt lat="44.49554" lon="5.72527">
        <ele>736.987793</ele>
        <time>2013-05-07T08:59:17Z</time>
      </trkpt>
      <trkpt lat="44.49558" lon="5.7253">
        <ele>736.5073242</ele>
        <time>2013-05-07T08:59:18Z</time>
      </trkpt>
      <trkpt lat="44.49609" lon="5.72593">
        <ele>735.5458984</ele>
        <time>2013-05-07T08:59:34Z</time>
      </trkpt>
      <trkpt lat="44.49668" lon="5.72597">
        <ele>735.5458984</ele>
        <time>2013-05-07T08:59:51Z</time>
      </trkpt>
      <trkpt lat="44.49734" lon="5.726">
        <ele>737.4685059</ele>
        <time>2013-05-07T09:00:15Z</time>
      </trkpt>
      <trkpt lat="44.49743" lon="5.72616">
        <ele>737.9492188</ele>
        <time>2013-05-07T09:00:24Z</time>
      </trkpt>
      <trkpt lat="44.49759" lon="5.72644">
        <ele>741.3137207</ele>
        <time>2013-05-07T09:00:43Z</time>
      </trkpt>
      <trkpt lat="44.49765" lon="5.72654">
        <ele>743.2363281</ele>
        <time>2013-05-07T09:01:03Z</time>
      </trkpt>
      <trkpt lat="44.49765" lon="5.72654">
        <ele>746.1203613</ele>
        <time>2013-05-07T09:01:21Z</time>
      </trkpt>
      <trkpt lat="44.49765" lon="5.72654">
        <ele>748.5236816</ele>
        <time>2013-05-07T09:01:40Z</time>
      </trkpt>
      <trkpt lat="44.49765" lon="5.72654">
        <ele>751.8884277</ele>
        <time>2013-05-07T09:02:01Z</time>
      </trkpt>
      <trkpt lat="44.49765" lon="5.72654">
        <ele>754.7722168</ele>
        <time>2013-05-07T09:02:25Z</time>
      </trkpt>
      <trkpt lat="44.49765" lon="5.72654">
        <ele>755.7336426</ele>
        <time>2013-05-07T09:02:34Z</time>
      </trkpt>
      <trkpt lat="44.49839" lon="5.72727">
        <ele>758.6174316</ele>
        <time>2013-05-07T09:02:55Z</time>
      </trkpt>
      <trkpt lat="44.49839" lon="5.72727">
        <ele>760.5400391</ele>
        <time>2013-05-07T09:03:08Z</time>
      </trkpt>
      <trkpt lat="44.49839" lon="5.72727">
        <ele>763.4240723</ele>
        <time>2013-05-07T09:03:29Z</time>
      </trkpt>
      <trkpt lat="44.49839" lon="5.72727">
        <ele>766.3081055</ele>
        <time>2013-05-07T09:03:54Z</time>
      </trkpt>
      <trkpt lat="44.49839" lon="5.72727">
        <ele>768.2307129</ele>
        <time>2013-05-07T09:04:09Z</time>
      </trkpt>
      <trkpt lat="44.49912" lon="5.72802">
        <ele>771.5952148</ele>
        <time>2013-05-07T09:04:31Z</time>
      </trkpt>
      <trkpt lat="44.49912" lon="5.72802">
        <ele>774.479248</ele>
        <time>2013-05-07T09:04:56Z</time>
      </trkpt>
      <trkpt lat="44.49912" lon="5.72802">
        <ele>776.4018555</ele>
        <time>2013-05-07T09:05:12Z</time>
      </trkpt>
      <trkpt lat="44.49912" lon="5.72802">
        <ele>778.3244629</ele>
        <time>2013-05-07T09:05:23Z</time>
      </trkpt>
      <trkpt lat="44.49912" lon="5.72802">
        <ele>781.2087402</ele>
        <time>2013-05-07T09:05:48Z</time>
      </trkpt>
      <trkpt lat="44.49991" lon="5.72863">
        <ele>784.5732422</ele>
        <time>2013-05-07T09:06:14Z</time>
      </trkpt>
      <trkpt lat="44.49991" lon="5.72863">
        <ele>785.5344238</ele>
        <time>2013-05-07T09:06:34Z</time>
      </trkpt>
      <trkpt lat="44.50014" lon="5.72872">
        <ele>785.5344238</ele>
        <time>2013-05-07T09:06:48Z</time>
      </trkpt>
      <trkpt lat="44.50051" lon="5.72882">
        <ele>786.4958496</ele>
        <time>2013-05-07T09:07:10Z</time>
      </trkpt>
      <trkpt lat="44.50061" lon="5.72887">
        <ele>786.4958496</ele>
        <time>2013-05-07T09:07:14Z</time>
      </trkpt>
      <trkpt lat="44.50098" lon="5.72888">
        <ele>786.4958496</ele>
        <time>2013-05-07T09:07:30Z</time>
      </trkpt>
      <trkpt lat="44.50142" lon="5.7289">
        <ele>787.4570313</ele>
        <time>2013-05-07T09:07:47Z</time>
      </trkpt>
      <trkpt lat="44.50192" lon="5.7289">
        <ele>789.8603516</ele>
        <time>2013-05-07T09:08:08Z</time>
      </trkpt>
      <trkpt lat="44.50228" lon="5.72897">
        <ele>792.7443848</ele>
        <time>2013-05-07T09:08:28Z</time>
      </trkpt>
      <trkpt lat="44.50254" lon="5.72908">
        <ele>795.1474609</ele>
        <time>2013-05-07T09:08:46Z</time>
      </trkpt>
      <trkpt lat="44.50281" lon="5.72922">
        <ele>797.5510254</ele>
        <time>2013-05-07T09:09:05Z</time>
      </trkpt>
      <trkpt lat="44.50305" lon="5.72936">
        <ele>799.9543457</ele>
        <time>2013-05-07T09:09:24Z</time>
      </trkpt>
      <trkpt lat="44.50321" lon="5.72943">
        <ele>802.3574219</ele>
        <time>2013-05-07T09:09:37Z</time>
      </trkpt>
      <trkpt lat="44.50345" lon="5.72933">
        <ele>805.2414551</ele>
        <time>2013-05-07T09:09:57Z</time>
      </trkpt>
      <trkpt lat="44.50365" lon="5.72943">
        <ele>806.2026367</ele>
        <time>2013-05-07T09:10:15Z</time>
      </trkpt>
      <trkpt lat="44.50367" lon="5.72943">
        <ele>805.722168</ele>
        <time>2013-05-07T09:10:37Z</time>
      </trkpt>
      <trkpt lat="44.50367" lon="5.72943">
        <ele>806.2026367</ele>
        <time>2013-05-07T09:12:05Z</time>
      </trkpt>
      <trkpt lat="44.50368" lon="5.72942">
        <ele>804.7607422</ele>
        <time>2013-05-07T09:12:08Z</time>
      </trkpt>
      <trkpt lat="44.50368" lon="5.72941">
        <ele>807.1640625</ele>
        <time>2013-05-07T09:12:10Z</time>
      </trkpt>
      <trkpt lat="44.50367" lon="5.72941">
        <ele>806.6833496</ele>
        <time>2013-05-07T09:12:16Z</time>
      </trkpt>
      <trkpt lat="44.50367" lon="5.72942">
        <ele>808.1254883</ele>
        <time>2013-05-07T09:12:23Z</time>
      </trkpt>
      <trkpt lat="44.50367" lon="5.72942">
        <ele>803.7995605</ele>
        <time>2013-05-07T09:12:26Z</time>
      </trkpt>
      <trkpt lat="44.50367" lon="5.72942">
        <ele>803.7995605</ele>
        <time>2013-05-07T09:12:27Z</time>
      </trkpt>
      <trkpt lat="44.50367" lon="5.72942">
        <ele>805.722168</ele>
        <time>2013-05-07T09:12:29Z</time>
      </trkpt>
      <trkpt lat="44.50366" lon="5.72942">
        <ele>803.3188477</ele>
        <time>2013-05-07T09:12:36Z</time>
      </trkpt>
      <trkpt lat="44.50367" lon="5.72942">
        <ele>806.2026367</ele>
        <time>2013-05-07T09:12:38Z</time>
      </trkpt>
      <trkpt lat="44.50367" lon="5.72942">
        <ele>806.2026367</ele>
        <time>2013-05-07T09:12:39Z</time>
      </trkpt>
      <trkpt lat="44.50366" lon="5.72942">
        <ele>804.7607422</ele>
        <time>2013-05-07T09:12:42Z</time>
      </trkpt>
      <trkpt lat="44.50366" lon="5.72944">
        <ele>805.2414551</ele>
        <time>2013-05-07T09:13:05Z</time>
      </trkpt>
      <trkpt lat="44.50366" lon="5.72944">
        <ele>805.2414551</ele>
        <time>2013-05-07T09:14:21Z</time>
      </trkpt>
      <trkpt lat="44.50366" lon="5.72946">
        <ele>806.2026367</ele>
        <time>2013-05-07T09:15:15Z</time>
      </trkpt>
      <trkpt lat="44.50366" lon="5.72947">
        <ele>805.722168</ele>
        <time>2013-05-07T09:17:56Z</time>
      </trkpt>
      <trkpt lat="44.50369" lon="5.72952">
        <ele>805.722168</ele>
        <time>2013-05-07T09:18:01Z</time>
      </trkpt>
      <trkpt lat="44.50371" lon="5.72957">
        <ele>805.722168</ele>
        <time>2013-05-07T09:18:22Z</time>
      </trkpt>
      <trkpt lat="44.50371" lon="5.72957">
        <ele>806.2026367</ele>
        <time>2013-05-07T09:20:19Z</time>
      </trkpt>
      <trkpt lat="44.50372" lon="5.72958">
        <ele>806.6833496</ele>
        <time>2013-05-07T09:20:57Z</time>
      </trkpt>
      <trkpt lat="44.50373" lon="5.72958">
        <ele>806.2026367</ele>
        <time>2013-05-07T09:21:11Z</time>
      </trkpt>
      <trkpt lat="44.5039" lon="5.72994">
        <ele>806.2026367</ele>
        <time>2013-05-07T09:21:28Z</time>
      </trkpt>
      <trkpt lat="44.50397" lon="5.73017">
        <ele>806.6833496</ele>
        <time>2013-05-07T09:21:39Z</time>
      </trkpt>
      <trkpt lat="44.50391" lon="5.73063">
        <ele>805.722168</ele>
        <time>2013-05-07T09:21:54Z</time>
      </trkpt>
      <trkpt lat="44.504" lon="5.73128">
        <ele>805.722168</ele>
        <time>2013-05-07T09:22:12Z</time>
      </trkpt>
      <trkpt lat="44.50433" lon="5.73136">
        <ele>807.1640625</ele>
        <time>2013-05-07T09:22:27Z</time>
      </trkpt>
      <trkpt lat="44.50476" lon="5.73132">
        <ele>808.605957</ele>
        <time>2013-05-07T09:22:46Z</time>
      </trkpt>
      <trkpt lat="44.50514" lon="5.73144">
        <ele>809.0866699</ele>
        <time>2013-05-07T09:23:02Z</time>
      </trkpt>
      <trkpt lat="44.50553" lon="5.73157">
        <ele>809.5673828</ele>
        <time>2013-05-07T09:23:18Z</time>
      </trkpt>
      <trkpt lat="44.50595" lon="5.7315">
        <ele>810.0478516</ele>
        <time>2013-05-07T09:23:35Z</time>
      </trkpt>
      <trkpt lat="44.50639" lon="5.73137">
        <ele>810.0478516</ele>
        <time>2013-05-07T09:23:51Z</time>
      </trkpt>
      <trkpt lat="44.50681" lon="5.73161">
        <ele>810.5285645</ele>
        <time>2013-05-07T09:24:07Z</time>
      </trkpt>
      <trkpt lat="44.5073" lon="5.73198">
        <ele>811.0092773</ele>
        <time>2013-05-07T09:24:27Z</time>
      </trkpt>
      <trkpt lat="44.50778" lon="5.73238">
        <ele>811.9707031</ele>
        <time>2013-05-07T09:24:47Z</time>
      </trkpt>
      <trkpt lat="44.50827" lon="5.73276">
        <ele>812.451416</ele>
        <time>2013-05-07T09:25:07Z</time>
      </trkpt>
      <trkpt lat="44.50879" lon="5.73319">
        <ele>812.451416</ele>
        <time>2013-05-07T09:25:27Z</time>
      </trkpt>
      <trkpt lat="44.50916" lon="5.73349">
        <ele>812.451416</ele>
        <time>2013-05-07T09:25:43Z</time>
      </trkpt>
      <trkpt lat="44.50968" lon="5.73393">
        <ele>812.9321289</ele>
        <time>2013-05-07T09:26:04Z</time>
      </trkpt>
      <trkpt lat="44.51011" lon="5.73432">
        <ele>813.4128418</ele>
        <time>2013-05-07T09:26:23Z</time>
      </trkpt>
      <trkpt lat="44.51042" lon="5.73451">
        <ele>814.3740234</ele>
        <time>2013-05-07T09:26:39Z</time>
      </trkpt>
      <trkpt lat="44.51066" lon="5.73459">
        <ele>814.8547363</ele>
        <time>2013-05-07T09:26:51Z</time>
      </trkpt>
      <trkpt lat="44.5107" lon="5.7346">
        <ele>814.3740234</ele>
        <time>2013-05-07T09:26:53Z</time>
      </trkpt>
      <trkpt lat="44.511" lon="5.7344">
        <ele>814.8547363</ele>
        <time>2013-05-07T09:27:08Z</time>
      </trkpt>
      <trkpt lat="44.51122" lon="5.73441">
        <ele>815.3354492</ele>
        <time>2013-05-07T09:27:17Z</time>
      </trkpt>
      <trkpt lat="44.5113" lon="5.73443">
        <ele>815.8161621</ele>
        <time>2013-05-07T09:27:21Z</time>
      </trkpt>
      <trkpt lat="44.51143" lon="5.73449">
        <ele>816.7773438</ele>
        <time>2013-05-07T09:27:27Z</time>
      </trkpt>
      <trkpt lat="44.51209" lon="5.73465">
        <ele>816.2966309</ele>
        <time>2013-05-07T09:27:54Z</time>
      </trkpt>
      <trkpt lat="44.51279" lon="5.73475">
        <ele>816.7773438</ele>
        <time>2013-05-07T09:28:20Z</time>
      </trkpt>
      <trkpt lat="44.51302" lon="5.73479">
        <ele>816.7773438</ele>
        <time>2013-05-07T09:28:28Z</time>
      </trkpt>
      <trkpt lat="44.51374" lon="5.73486">
        <ele>816.7773438</ele>
        <time>2013-05-07T09:28:54Z</time>
      </trkpt>
      <trkpt lat="44.51436" lon="5.73492">
        <ele>817.2580566</ele>
        <time>2013-05-07T09:29:17Z</time>
      </trkpt>
      <trkpt lat="44.51478" lon="5.73497">
        <ele>818.2192383</ele>
        <time>2013-05-07T09:29:33Z</time>
      </trkpt>
      <trkpt lat="44.51502" lon="5.73499">
        <ele>818.6999512</ele>
        <time>2013-05-07T09:29:49Z</time>
      </trkpt>
      <trkpt lat="44.51503" lon="5.73493">
        <ele>819.1806641</ele>
        <time>2013-05-07T09:30:25Z</time>
      </trkpt>
      <trkpt lat="44.51515" lon="5.73471">
        <ele>818.2192383</ele>
        <time>2013-05-07T09:30:49Z</time>
      </trkpt>
      <trkpt lat="44.51515" lon="5.7347">
        <ele>818.2192383</ele>
        <time>2013-05-07T09:30:51Z</time>
      </trkpt>
      <trkpt lat="44.51521" lon="5.73462">
        <ele>817.7385254</ele>
        <time>2013-05-07T09:31:06Z</time>
      </trkpt>
      <trkpt lat="44.51525" lon="5.7346">
        <ele>818.2192383</ele>
        <time>2013-05-07T09:31:21Z</time>
      </trkpt>
      <trkpt lat="44.51541" lon="5.73449">
        <ele>818.6999512</ele>
        <time>2013-05-07T09:31:39Z</time>
      </trkpt>
      <trkpt lat="44.51541" lon="5.7345">
        <ele>818.6999512</ele>
        <time>2013-05-07T09:31:54Z</time>
      </trkpt>
      <trkpt lat="44.51564" lon="5.73439">
        <ele>819.661377</ele>
        <time>2013-05-07T09:32:27Z</time>
      </trkpt>
      <trkpt lat="44.51575" lon="5.73431">
        <ele>819.661377</ele>
        <time>2013-05-07T09:32:45Z</time>
      </trkpt>
      <trkpt lat="44.51604" lon="5.73413">
        <ele>820.1418457</ele>
        <time>2013-05-07T09:32:58Z</time>
      </trkpt>
      <trkpt lat="44.5162" lon="5.73388">
        <ele>819.1806641</ele>
        <time>2013-05-07T09:33:08Z</time>
      </trkpt>
      <trkpt lat="44.51647" lon="5.73366">
        <ele>817.2580566</ele>
        <time>2013-05-07T09:33:22Z</time>
      </trkpt>
      <trkpt lat="44.51676" lon="5.73357">
        <ele>816.2966309</ele>
        <time>2013-05-07T09:33:36Z</time>
      </trkpt>
      <trkpt lat="44.51686" lon="5.73343">
        <ele>814.8547363</ele>
        <time>2013-05-07T09:33:42Z</time>
      </trkpt>
      <trkpt lat="44.51692" lon="5.73334">
        <ele>813.4128418</ele>
        <time>2013-05-07T09:33:48Z</time>
      </trkpt>
      <trkpt lat="44.51708" lon="5.73334">
        <ele>814.3740234</ele>
        <time>2013-05-07T09:34:00Z</time>
      </trkpt>
      <trkpt lat="44.51717" lon="5.73325">
        <ele>815.3354492</ele>
        <time>2013-05-07T09:34:08Z</time>
      </trkpt>
      <trkpt lat="44.51743" lon="5.7331">
        <ele>816.2966309</ele>
        <time>2013-05-07T09:34:38Z</time>
      </trkpt>
      <trkpt lat="44.51747" lon="5.73309">
        <ele>815.8161621</ele>
        <time>2013-05-07T09:34:51Z</time>
      </trkpt>
      <trkpt lat="44.51762" lon="5.73297">
        <ele>813.8933105</ele>
        <time>2013-05-07T09:35:01Z</time>
      </trkpt>
      <trkpt lat="44.51776" lon="5.73287">
        <ele>815.8161621</ele>
        <time>2013-05-07T09:35:08Z</time>
      </trkpt>
      <trkpt lat="44.51779" lon="5.73276">
        <ele>814.3740234</ele>
        <time>2013-05-07T09:35:11Z</time>
      </trkpt>
      <trkpt lat="44.51785" lon="5.73266">
        <ele>812.9321289</ele>
        <time>2013-05-07T09:35:14Z</time>
      </trkpt>
      <trkpt lat="44.51796" lon="5.73261">
        <ele>813.4128418</ele>
        <time>2013-05-07T09:35:21Z</time>
      </trkpt>
      <trkpt lat="44.51803" lon="5.73263">
        <ele>811.4899902</ele>
        <time>2013-05-07T09:35:32Z</time>
      </trkpt>
      <trkpt lat="44.51805" lon="5.73262">
        <ele>813.4128418</ele>
        <time>2013-05-07T09:35:34Z</time>
      </trkpt>
      <trkpt lat="44.51805" lon="5.7326">
        <ele>811.9707031</ele>
        <time>2013-05-07T09:35:36Z</time>
      </trkpt>
      <trkpt lat="44.51807" lon="5.7326">
        <ele>813.4128418</ele>
        <time>2013-05-07T09:35:39Z</time>
      </trkpt>
      <trkpt lat="44.51814" lon="5.73258">
        <ele>815.3354492</ele>
        <time>2013-05-07T09:35:52Z</time>
      </trkpt>
      <trkpt lat="44.5183" lon="5.73269">
        <ele>815.3354492</ele>
        <time>2013-05-07T09:36:20Z</time>
      </trkpt>
      <trkpt lat="44.51846" lon="5.73258">
        <ele>818.2192383</ele>
        <time>2013-05-07T09:36:45Z</time>
      </trkpt>
      <trkpt lat="44.51868" lon="5.7326">
        <ele>818.6999512</ele>
        <time>2013-05-07T09:37:13Z</time>
      </trkpt>
      <trkpt lat="44.51876" lon="5.73265">
        <ele>821.5837402</ele>
        <time>2013-05-07T09:37:29Z</time>
      </trkpt>
      <trkpt lat="44.51878" lon="5.73281">
        <ele>824.9484863</ele>
        <time>2013-05-07T09:37:44Z</time>
      </trkpt>
      <trkpt lat="44.51906" lon="5.73274">
        <ele>827.8322754</ele>
        <time>2013-05-07T09:38:18Z</time>
      </trkpt>
      <trkpt lat="44.51914" lon="5.73283">
        <ele>829.755127</ele>
        <time>2013-05-07T09:38:48Z</time>
      </trkpt>
      <trkpt lat="44.5192" lon="5.73294">
        <ele>825.909668</ele>
        <time>2013-05-07T09:39:53Z</time>
      </trkpt>
      <trkpt lat="44.51922" lon="5.73294">
        <ele>825.909668</ele>
        <time>2013-05-07T09:39:54Z</time>
      </trkpt>
      <trkpt lat="44.51922" lon="5.73293">
        <ele>825.4289551</ele>
        <time>2013-05-07T09:39:55Z</time>
      </trkpt>
      <trkpt lat="44.51927" lon="5.73293">
        <ele>824.9484863</ele>
        <time>2013-05-07T09:39:58Z</time>
      </trkpt>
      <trkpt lat="44.5193" lon="5.73291">
        <ele>824.9484863</ele>
        <time>2013-05-07T09:40:01Z</time>
      </trkpt>
      <trkpt lat="44.51936" lon="5.73293">
        <ele>823.5065918</ele>
        <time>2013-05-07T09:40:04Z</time>
      </trkpt>
      <trkpt lat="44.51944" lon="5.73295">
        <ele>822.545166</ele>
        <time>2013-05-07T09:40:09Z</time>
      </trkpt>
      <trkpt lat="44.51951" lon="5.73309">
        <ele>822.545166</ele>
        <time>2013-05-07T09:40:17Z</time>
      </trkpt>
      <trkpt lat="44.51952" lon="5.73313">
        <ele>821.5837402</ele>
        <time>2013-05-07T09:40:19Z</time>
      </trkpt>
      <trkpt lat="44.51969" lon="5.73317">
        <ele>821.5837402</ele>
        <time>2013-05-07T09:40:32Z</time>
      </trkpt>
      <trkpt lat="44.51983" lon="5.73317">
        <ele>825.4289551</ele>
        <time>2013-05-07T09:40:47Z</time>
      </trkpt>
      <trkpt lat="44.51996" lon="5.73322">
        <ele>824.4677734</ele>
        <time>2013-05-07T09:41:02Z</time>
      </trkpt>
      <trkpt lat="44.52006" lon="5.73332">
        <ele>825.909668</ele>
        <time>2013-05-07T09:41:10Z</time>
      </trkpt>
      <trkpt lat="44.52014" lon="5.73351">
        <ele>827.3518066</ele>
        <time>2013-05-07T09:41:21Z</time>
      </trkpt>
      <trkpt lat="44.52028" lon="5.73379">
        <ele>828.7939453</ele>
        <time>2013-05-07T09:41:43Z</time>
      </trkpt>
      <trkpt lat="44.52038" lon="5.73397">
        <ele>829.2744141</ele>
        <time>2013-05-07T09:41:55Z</time>
      </trkpt>
      <trkpt lat="44.52048" lon="5.73401">
        <ele>829.755127</ele>
        <time>2013-05-07T09:41:59Z</time>
      </trkpt>
      <trkpt lat="44.52078" lon="5.73405">
        <ele>830.2358398</ele>
        <time>2013-05-07T09:42:15Z</time>
      </trkpt>
      <trkpt lat="44.52083" lon="5.73405">
        <ele>830.2358398</ele>
        <time>2013-05-07T09:42:18Z</time>
      </trkpt>
      <trkpt lat="44.52088" lon="5.73406">
        <ele>830.7165527</ele>
        <time>2013-05-07T09:42:22Z</time>
      </trkpt>
      <trkpt lat="44.5209" lon="5.73403">
        <ele>831.1972656</ele>
        <time>2013-05-07T09:42:26Z</time>
      </trkpt>
      <trkpt lat="44.52108" lon="5.73422">
        <ele>832.1584473</ele>
        <time>2013-05-07T09:42:44Z</time>
      </trkpt>
      <trkpt lat="44.52114" lon="5.7343">
        <ele>832.6391602</ele>
        <time>2013-05-07T09:42:49Z</time>
      </trkpt>
      <trkpt lat="44.52115" lon="5.73475">
        <ele>833.1196289</ele>
        <time>2013-05-07T09:43:03Z</time>
      </trkpt>
      <trkpt lat="44.52118" lon="5.7351">
        <ele>833.1196289</ele>
        <time>2013-05-07T09:43:14Z</time>
      </trkpt>
      <trkpt lat="44.52098" lon="5.73549">
        <ele>832.6391602</ele>
        <time>2013-05-07T09:43:27Z</time>
      </trkpt>
      <trkpt lat="44.52095" lon="5.73568">
        <ele>832.6391602</ele>
        <time>2013-05-07T09:43:33Z</time>
      </trkpt>
      <trkpt lat="44.52087" lon="5.73614">
        <ele>831.6777344</ele>
        <time>2013-05-07T09:43:44Z</time>
      </trkpt>
      <trkpt lat="44.52059" lon="5.73708">
        <ele>830.7165527</ele>
        <time>2013-05-07T09:44:01Z</time>
      </trkpt>
      <trkpt lat="44.52035" lon="5.73752">
        <ele>828.7939453</ele>
        <time>2013-05-07T09:44:11Z</time>
      </trkpt>
      <trkpt lat="44.5201" lon="5.73789">
        <ele>827.8322754</ele>
        <time>2013-05-07T09:44:20Z</time>
      </trkpt>
      <trkpt lat="44.5201" lon="5.73789">
        <ele>827.8322754</ele>
        <time>2013-05-07T09:44:22Z</time>
      </trkpt>
      <trkpt lat="44.51951" lon="5.7384">
        <ele>824.9484863</ele>
        <time>2013-05-07T09:44:33Z</time>
      </trkpt>
      <trkpt lat="44.51875" lon="5.73903">
        <ele>823.0258789</ele>
        <time>2013-05-07T09:44:50Z</time>
      </trkpt>
      <trkpt lat="44.51827" lon="5.7395">
        <ele>822.0644531</ele>
        <time>2013-05-07T09:45:04Z</time>
      </trkpt>
      <trkpt lat="44.51807" lon="5.74016">
        <ele>821.5837402</ele>
        <time>2013-05-07T09:45:18Z</time>
      </trkpt>
      <trkpt lat="44.5181" lon="5.74074">
        <ele>822.0644531</ele>
        <time>2013-05-07T09:45:33Z</time>
      </trkpt>
      <trkpt lat="44.5181" lon="5.74074">
        <ele>820.6225586</ele>
        <time>2013-05-07T09:45:43Z</time>
      </trkpt>
      <trkpt lat="44.51827" lon="5.74099">
        <ele>819.661377</ele>
        <time>2013-05-07T09:45:48Z</time>
      </trkpt>
      <trkpt lat="44.51827" lon="5.74099">
        <ele>818.6999512</ele>
        <time>2013-05-07T09:46:01Z</time>
      </trkpt>
      <trkpt lat="44.51827" lon="5.74099">
        <ele>818.2192383</ele>
        <time>2013-05-07T09:46:26Z</time>
      </trkpt>
      <trkpt lat="44.51853" lon="5.74135">
        <ele>815.8161621</ele>
        <time>2013-05-07T09:46:38Z</time>
      </trkpt>
      <trkpt lat="44.5187" lon="5.74163">
        <ele>811.9707031</ele>
        <time>2013-05-07T09:46:53Z</time>
      </trkpt>
      <trkpt lat="44.51875" lon="5.74173">
        <ele>809.5673828</ele>
        <time>2013-05-07T09:47:09Z</time>
      </trkpt>
      <trkpt lat="44.51887" lon="5.74214">
        <ele>806.6833496</ele>
        <time>2013-05-07T09:47:20Z</time>
      </trkpt>
      <trkpt lat="44.51886" lon="5.74245">
        <ele>804.7607422</ele>
        <time>2013-05-07T09:47:26Z</time>
      </trkpt>
      <trkpt lat="44.51883" lon="5.74271">
        <ele>801.3962402</ele>
        <time>2013-05-07T09:47:32Z</time>
      </trkpt>
      <trkpt lat="44.51883" lon="5.74276">
        <ele>801.3962402</ele>
        <time>2013-05-07T09:47:33Z</time>
      </trkpt>
      <trkpt lat="44.51882" lon="5.74294">
        <ele>798.9929199</ele>
        <time>2013-05-07T09:47:37Z</time>
      </trkpt>
      <trkpt lat="44.51881" lon="5.74304">
        <ele>797.5510254</ele>
        <time>2013-05-07T09:47:39Z</time>
      </trkpt>
      <trkpt lat="44.51879" lon="5.74317">
        <ele>795.6281738</ele>
        <time>2013-05-07T09:47:42Z</time>
      </trkpt>
      <trkpt lat="44.51874" lon="5.74342">
        <ele>792.2636719</ele>
        <time>2013-05-07T09:47:50Z</time>
      </trkpt>
      <trkpt lat="44.51868" lon="5.74365">
        <ele>788.418457</ele>
        <time>2013-05-07T09:47:57Z</time>
      </trkpt>
      <trkpt lat="44.51862" lon="5.74387">
        <ele>785.5344238</ele>
        <time>2013-05-07T09:48:03Z</time>
      </trkpt>
      <trkpt lat="44.51859" lon="5.74406">
        <ele>780.7280273</ele>
        <time>2013-05-07T09:48:09Z</time>
      </trkpt>
      <trkpt lat="44.51858" lon="5.74409">
        <ele>780.7280273</ele>
        <time>2013-05-07T09:48:10Z</time>
      </trkpt>
      <trkpt lat="44.51857" lon="5.74416">
        <ele>779.7663574</ele>
        <time>2013-05-07T09:48:12Z</time>
      </trkpt>
      <trkpt lat="44.51855" lon="5.7443">
        <ele>776.4018555</ele>
        <time>2013-05-07T09:48:17Z</time>
      </trkpt>
      <trkpt lat="44.51851" lon="5.74444">
        <ele>773.0373535</ele>
        <time>2013-05-07T09:48:22Z</time>
      </trkpt>
      <trkpt lat="44.51845" lon="5.74457">
        <ele>771.5952148</ele>
        <time>2013-05-07T09:48:26Z</time>
      </trkpt>
      <trkpt lat="44.51839" lon="5.74469">
        <ele>768.2307129</ele>
        <time>2013-05-07T09:48:31Z</time>
      </trkpt>
      <trkpt lat="44.51836" lon="5.74472">
        <ele>767.2695313</ele>
        <time>2013-05-07T09:48:33Z</time>
      </trkpt>
      <trkpt lat="44.51834" lon="5.74473">
        <ele>765.3469238</ele>
        <time>2013-05-07T09:48:36Z</time>
      </trkpt>
      <trkpt lat="44.51832" lon="5.74492">
        <ele>762.9433594</ele>
        <time>2013-05-07T09:48:40Z</time>
      </trkpt>
      <trkpt lat="44.51836" lon="5.74526">
        <ele>759.5788574</ele>
        <time>2013-05-07T09:48:54Z</time>
      </trkpt>
      <trkpt lat="44.51851" lon="5.74542">
        <ele>761.020752</ele>
        <time>2013-05-07T09:49:04Z</time>
      </trkpt>
      <trkpt lat="44.51875" lon="5.74578">
        <ele>762.4626465</ele>
        <time>2013-05-07T09:49:15Z</time>
      </trkpt>
      <trkpt lat="44.51885" lon="5.74594">
        <ele>762.4626465</ele>
        <time>2013-05-07T09:49:30Z</time>
      </trkpt>
      <trkpt lat="44.5189" lon="5.74602">
        <ele>762.4626465</ele>
        <time>2013-05-07T09:49:33Z</time>
      </trkpt>
      <trkpt lat="44.51909" lon="5.74632">
        <ele>763.4240723</ele>
        <time>2013-05-07T09:49:46Z</time>
      </trkpt>
      <trkpt lat="44.5193" lon="5.74668">
        <ele>764.385498</ele>
        <time>2013-05-07T09:49:59Z</time>
      </trkpt>
      <trkpt lat="44.51948" lon="5.74695">
        <ele>765.8276367</ele>
        <time>2013-05-07T09:50:10Z</time>
      </trkpt>
      <trkpt lat="44.51976" lon="5.74733">
        <ele>766.3081055</ele>
        <time>2013-05-07T09:50:25Z</time>
      </trkpt>
      <trkpt lat="44.51986" lon="5.74744">
        <ele>766.3081055</ele>
        <time>2013-05-07T09:50:29Z</time>
      </trkpt>
      <trkpt lat="44.52019" lon="5.74776">
        <ele>766.3081055</ele>
        <time>2013-05-07T09:50:41Z</time>
      </trkpt>
      <trkpt lat="44.52053" lon="5.74822">
        <ele>766.3081055</ele>
        <time>2013-05-07T09:50:55Z</time>
      </trkpt>
      <trkpt lat="44.52059" lon="5.74844">
        <ele>766.7888184</ele>
        <time>2013-05-07T09:51:09Z</time>
      </trkpt>
      <trkpt lat="44.52059" lon="5.74844">
        <ele>766.7888184</ele>
        <time>2013-05-07T09:51:26Z</time>
      </trkpt>
      <trkpt lat="44.52059" lon="5.74844">
        <ele>767.2695313</ele>
        <time>2013-05-07T09:52:03Z</time>
      </trkpt>
      <trkpt lat="44.52065" lon="5.74863">
        <ele>765.8276367</ele>
        <time>2013-05-07T09:52:28Z</time>
      </trkpt>
      <trkpt lat="44.52069" lon="5.74873">
        <ele>766.3081055</ele>
        <time>2013-05-07T09:52:32Z</time>
      </trkpt>
      <trkpt lat="44.5208" lon="5.74897">
        <ele>765.3469238</ele>
        <time>2013-05-07T09:52:43Z</time>
      </trkpt>
      <trkpt lat="44.52087" lon="5.7491">
        <ele>765.8276367</ele>
        <time>2013-05-07T09:52:50Z</time>
      </trkpt>
      <trkpt lat="44.52087" lon="5.7491">
        <ele>766.7888184</ele>
        <time>2013-05-07T09:52:53Z</time>
      </trkpt>
      <trkpt lat="44.52102" lon="5.74948">
        <ele>765.8276367</ele>
        <time>2013-05-07T09:53:07Z</time>
      </trkpt>
      <trkpt lat="44.52116" lon="5.75006">
        <ele>765.3469238</ele>
        <time>2013-05-07T09:53:21Z</time>
      </trkpt>
      <trkpt lat="44.52131" lon="5.75045">
        <ele>765.3469238</ele>
        <time>2013-05-07T09:53:33Z</time>
      </trkpt>
      <trkpt lat="44.52151" lon="5.75086">
        <ele>764.8662109</ele>
        <time>2013-05-07T09:53:44Z</time>
      </trkpt>
      <trkpt lat="44.5216" lon="5.75124">
        <ele>763.904541</ele>
        <time>2013-05-07T09:53:52Z</time>
      </trkpt>
      <trkpt lat="44.52164" lon="5.75143">
        <ele>764.385498</ele>
        <time>2013-05-07T09:54:05Z</time>
      </trkpt>
      <trkpt lat="44.52161" lon="5.75149">
        <ele>763.4240723</ele>
        <time>2013-05-07T09:54:30Z</time>
      </trkpt>
      <trkpt lat="44.52149" lon="5.75192">
        <ele>761.9821777</ele>
        <time>2013-05-07T09:54:38Z</time>
      </trkpt>
      <trkpt lat="44.52115" lon="5.75218">
        <ele>760.5400391</ele>
        <time>2013-05-07T09:54:45Z</time>
      </trkpt>
      <trkpt lat="44.52086" lon="5.75262">
        <ele>759.5788574</ele>
        <time>2013-05-07T09:54:56Z</time>
      </trkpt>
      <trkpt lat="44.52083" lon="5.7527">
        <ele>758.1369629</ele>
        <time>2013-05-07T09:55:11Z</time>
      </trkpt>
      <trkpt lat="44.52081" lon="5.75274">
        <ele>758.1369629</ele>
        <time>2013-05-07T09:55:55Z</time>
      </trkpt>
      <trkpt lat="44.52093" lon="5.75308">
        <ele>757.1755371</ele>
        <time>2013-05-07T09:56:03Z</time>
      </trkpt>
      <trkpt lat="44.52104" lon="5.75324">
        <ele>757.1755371</ele>
        <time>2013-05-07T09:56:10Z</time>
      </trkpt>
      <trkpt lat="44.52112" lon="5.75328">
        <ele>757.65625</ele>
        <time>2013-05-07T09:56:22Z</time>
      </trkpt>
      <trkpt lat="44.52107" lon="5.75329">
        <ele>758.1369629</ele>
        <time>2013-05-07T09:56:46Z</time>
      </trkpt>
      <trkpt lat="44.52104" lon="5.75328">
        <ele>757.65625</ele>
        <time>2013-05-07T09:57:08Z</time>
      </trkpt>
      <trkpt lat="44.52105" lon="5.75324">
        <ele>757.65625</ele>
        <time>2013-05-07T09:57:33Z</time>
      </trkpt>
      <trkpt lat="44.52106" lon="5.75324">
        <ele>757.65625</ele>
        <time>2013-05-07T09:58:02Z</time>
      </trkpt>
      <trkpt lat="44.52106" lon="5.75323">
        <ele>757.65625</ele>
        <time>2013-05-07T09:59:09Z</time>
      </trkpt>
      <trkpt lat="44.52106" lon="5.75323">
        <ele>759.5788574</ele>
        <time>2013-05-07T09:59:48Z</time>
      </trkpt>
      <trkpt lat="44.52106" lon="5.75323">
        <ele>758.1369629</ele>
        <time>2013-05-07T09:59:50Z</time>
      </trkpt>
      <trkpt lat="44.52109" lon="5.75322">
        <ele>759.5788574</ele>
        <time>2013-05-07T10:00:19Z</time>
      </trkpt>
      <trkpt lat="44.52108" lon="5.75321">
        <ele>758.1369629</ele>
        <time>2013-05-07T10:00:36Z</time>
      </trkpt>
      <trkpt lat="44.52109" lon="5.75322">
        <ele>758.6174316</ele>
        <time>2013-05-07T10:00:47Z</time>
      </trkpt>
      <trkpt lat="44.52109" lon="5.75319">
        <ele>758.6174316</ele>
        <time>2013-05-07T10:01:20Z</time>
      </trkpt>
      <trkpt lat="44.52109" lon="5.75319">
        <ele>757.1755371</ele>
        <time>2013-05-07T10:01:25Z</time>
      </trkpt>
      <trkpt lat="44.52109" lon="5.75319">
        <ele>759.0981445</ele>
        <time>2013-05-07T10:01:27Z</time>
      </trkpt>
      <trkpt lat="44.52111" lon="5.75307">
        <ele>759.0981445</ele>
        <time>2013-05-07T10:12:56Z</time>
      </trkpt>
      <trkpt lat="44.52113" lon="5.75307">
        <ele>759.0981445</ele>
        <time>2013-05-07T10:13:08Z</time>
      </trkpt>
      <trkpt lat="44.52116" lon="5.75303">
        <ele>759.0981445</ele>
        <time>2013-05-07T10:13:25Z</time>
      </trkpt>
      <trkpt lat="44.52119" lon="5.75303">
        <ele>759.0981445</ele>
        <time>2013-05-07T10:14:19Z</time>
      </trkpt>
      <trkpt lat="44.5212" lon="5.753">
        <ele>759.0981445</ele>
        <time>2013-05-07T10:14:35Z</time>
      </trkpt>
      <trkpt lat="44.5212" lon="5.75299">
        <ele>758.6174316</ele>
        <time>2013-05-07T10:15:38Z</time>
      </trkpt>
      <trkpt lat="44.5212" lon="5.75298">
        <ele>759.5788574</ele>
        <time>2013-05-07T10:16:23Z</time>
      </trkpt>
      <trkpt lat="44.52117" lon="5.75296">
        <ele>758.6174316</ele>
        <time>2013-05-07T10:17:09Z</time>
      </trkpt>
      <trkpt lat="44.52115" lon="5.75309">
        <ele>758.6174316</ele>
        <time>2013-05-07T10:17:22Z</time>
      </trkpt>
      <trkpt lat="44.52115" lon="5.75313">
        <ele>758.1369629</ele>
        <time>2013-05-07T10:17:25Z</time>
      </trkpt>
      <trkpt lat="44.52114" lon="5.75317">
        <ele>758.6174316</ele>
        <time>2013-05-07T10:17:29Z</time>
      </trkpt>
      <trkpt lat="44.52115" lon="5.75322">
        <ele>759.0981445</ele>
        <time>2013-05-07T10:17:33Z</time>
      </trkpt>
      <trkpt lat="44.52114" lon="5.75329">
        <ele>757.65625</ele>
        <time>2013-05-07T10:17:49Z</time>
      </trkpt>
      <trkpt lat="44.52112" lon="5.75324">
        <ele>757.1755371</ele>
        <time>2013-05-07T10:21:39Z</time>
      </trkpt>
      <trkpt lat="44.52112" lon="5.75324">
        <ele>757.1755371</ele>
        <time>2013-05-07T10:21:47Z</time>
      </trkpt>
      <trkpt lat="44.52112" lon="5.75324">
        <ele>758.6174316</ele>
        <time>2013-05-07T10:22:23Z</time>
      </trkpt>
      <trkpt lat="44.52114" lon="5.75324">
        <ele>759.0981445</ele>
        <time>2013-05-07T10:30:48Z</time>
      </trkpt>
      <trkpt lat="44.52114" lon="5.75325">
        <ele>757.1755371</ele>
        <time>2013-05-07T10:31:01Z</time>
      </trkpt>
      <trkpt lat="44.52114" lon="5.75326">
        <ele>758.6174316</ele>
        <time>2013-05-07T10:31:03Z</time>
      </trkpt>
      <trkpt lat="44.52114" lon="5.75326">
        <ele>757.1755371</ele>
        <time>2013-05-07T10:31:07Z</time>
      </trkpt>
      <trkpt lat="44.52104" lon="5.75331">
        <ele>758.1369629</ele>
        <time>2013-05-07T10:31:54Z</time>
      </trkpt>
      <trkpt lat="44.52098" lon="5.75325">
        <ele>757.1755371</ele>
        <time>2013-05-07T10:32:06Z</time>
      </trkpt>
      <trkpt lat="44.52093" lon="5.75315">
        <ele>758.1369629</ele>
        <time>2013-05-07T10:32:10Z</time>
      </trkpt>
      <trkpt lat="44.52086" lon="5.75282">
        <ele>759.5788574</ele>
        <time>2013-05-07T10:32:20Z</time>
      </trkpt>
      <trkpt lat="44.52091" lon="5.75273">
        <ele>759.0981445</ele>
        <time>2013-05-07T10:32:24Z</time>
      </trkpt>
      <trkpt lat="44.52104" lon="5.75228">
        <ele>760.5400391</ele>
        <time>2013-05-07T10:32:41Z</time>
      </trkpt>
      <trkpt lat="44.5213" lon="5.75206">
        <ele>761.020752</ele>
        <time>2013-05-07T10:32:53Z</time>
      </trkpt>
      <trkpt lat="44.52136" lon="5.75202">
        <ele>761.5014648</ele>
        <time>2013-05-07T10:32:58Z</time>
      </trkpt>
      <trkpt lat="44.52142" lon="5.75183">
        <ele>761.9821777</ele>
        <time>2013-05-07T10:33:05Z</time>
      </trkpt>
      <trkpt lat="44.52149" lon="5.75173">
        <ele>762.4626465</ele>
        <time>2013-05-07T10:33:13Z</time>
      </trkpt>
      <trkpt lat="44.52155" lon="5.75165">
        <ele>762.4626465</ele>
        <time>2013-05-07T10:33:24Z</time>
      </trkpt>
      <trkpt lat="44.52157" lon="5.7517">
        <ele>762.9433594</ele>
        <time>2013-05-07T10:33:54Z</time>
      </trkpt>
      <trkpt lat="44.52158" lon="5.75172">
        <ele>762.9433594</ele>
        <time>2013-05-07T10:34:06Z</time>
      </trkpt>
      <trkpt lat="44.52159" lon="5.75169">
        <ele>762.9433594</ele>
        <time>2013-05-07T10:34:22Z</time>
      </trkpt>
      <trkpt lat="44.52161" lon="5.75167">
        <ele>762.9433594</ele>
        <time>2013-05-07T10:34:51Z</time>
      </trkpt>
      <trkpt lat="44.5216" lon="5.75166">
        <ele>762.9433594</ele>
        <time>2013-05-07T10:35:26Z</time>
      </trkpt>
      <trkpt lat="44.52163" lon="5.75172">
        <ele>761.5014648</ele>
        <time>2013-05-07T10:36:06Z</time>
      </trkpt>
      <trkpt lat="44.52163" lon="5.75172">
        <ele>762.9433594</ele>
        <time>2013-05-07T10:36:08Z</time>
      </trkpt>
      <trkpt lat="44.52165" lon="5.75166">
        <ele>763.4240723</ele>
        <time>2013-05-07T10:36:36Z</time>
      </trkpt>
      <trkpt lat="44.52164" lon="5.75166">
        <ele>762.9433594</ele>
        <time>2013-05-07T10:37:17Z</time>
      </trkpt>
      <trkpt lat="44.52164" lon="5.75166">
        <ele>763.904541</ele>
        <time>2013-05-07T10:37:20Z</time>
      </trkpt>
      <trkpt lat="44.52164" lon="5.75167">
        <ele>762.4626465</ele>
        <time>2013-05-07T10:37:22Z</time>
      </trkpt>
      <trkpt lat="44.52164" lon="5.75167">
        <ele>761.9821777</ele>
        <time>2013-05-07T10:38:44Z</time>
      </trkpt>
      <trkpt lat="44.52164" lon="5.75167">
        <ele>763.4240723</ele>
        <time>2013-05-07T10:38:46Z</time>
      </trkpt>
      <trkpt lat="44.52164" lon="5.75165">
        <ele>762.9433594</ele>
        <time>2013-05-07T10:39:17Z</time>
      </trkpt>
      <trkpt lat="44.52164" lon="5.75165">
        <ele>762.4626465</ele>
        <time>2013-05-07T10:39:24Z</time>
      </trkpt>
      <trkpt lat="44.52164" lon="5.75165">
        <ele>762.4626465</ele>
        <time>2013-05-07T10:40:25Z</time>
      </trkpt>
      <trkpt lat="44.52164" lon="5.75166">
        <ele>763.904541</ele>
        <time>2013-05-07T10:40:39Z</time>
      </trkpt>
      <trkpt lat="44.52164" lon="5.75166">
        <ele>762.4626465</ele>
        <time>2013-05-07T10:40:46Z</time>
      </trkpt>
      <trkpt lat="44.52164" lon="5.75166">
        <ele>765.3469238</ele>
        <time>2013-05-07T10:45:35Z</time>
      </trkpt>
      <trkpt lat="44.52164" lon="5.75167">
        <ele>765.8276367</ele>
        <time>2013-05-07T10:46:35Z</time>
      </trkpt>
      <trkpt lat="44.52164" lon="5.75167">
        <ele>764.8662109</ele>
        <time>2013-05-07T10:47:39Z</time>
      </trkpt>
      <trkpt lat="44.52164" lon="5.75167">
        <ele>765.8276367</ele>
        <time>2013-05-07T10:48:11Z</time>
      </trkpt>
      <trkpt lat="44.52164" lon="5.75167">
        <ele>765.3469238</ele>
        <time>2013-05-07T10:48:40Z</time>
      </trkpt>
      <trkpt lat="44.52164" lon="5.75168">
        <ele>765.3469238</ele>
        <time>2013-05-07T10:49:20Z</time>
      </trkpt>
      <trkpt lat="44.52158" lon="5.7517">
        <ele>766.7888184</ele>
        <time>2013-05-07T10:51:00Z</time>
      </trkpt>
      <trkpt lat="44.52158" lon="5.7517">
        <ele>765.3469238</ele>
        <time>2013-05-07T10:52:13Z</time>
      </trkpt>
      <trkpt lat="44.52158" lon="5.7517">
        <ele>765.3469238</ele>
        <time>2013-05-07T10:52:21Z</time>
      </trkpt>
      <trkpt lat="44.52158" lon="5.7517">
        <ele>765.8276367</ele>
        <time>2013-05-07T10:53:33Z</time>
      </trkpt>
      <trkpt lat="44.52158" lon="5.75167">
        <ele>765.3469238</ele>
        <time>2013-05-07T10:54:20Z</time>
      </trkpt>
      <trkpt lat="44.52158" lon="5.75168">
        <ele>766.3081055</ele>
        <time>2013-05-07T10:54:39Z</time>
      </trkpt>
      <trkpt lat="44.52156" lon="5.75171">
        <ele>765.3469238</ele>
        <time>2013-05-07T10:55:22Z</time>
      </trkpt>
      <trkpt lat="44.52156" lon="5.75171">
        <ele>765.8276367</ele>
        <time>2013-05-07T10:56:03Z</time>
      </trkpt>
      <trkpt lat="44.52154" lon="5.75173">
        <ele>765.8276367</ele>
        <time>2013-05-07T10:56:05Z</time>
      </trkpt>
      <trkpt lat="44.52148" lon="5.75184">
        <ele>764.8662109</ele>
        <time>2013-05-07T10:56:10Z</time>
      </trkpt>
      <trkpt lat="44.52124" lon="5.75214">
        <ele>763.4240723</ele>
        <time>2013-05-07T10:56:26Z</time>
      </trkpt>
      <trkpt lat="44.52105" lon="5.75233">
        <ele>762.4626465</ele>
        <time>2013-05-07T10:56:39Z</time>
      </trkpt>
      <trkpt lat="44.52091" lon="5.75245">
        <ele>761.5014648</ele>
        <time>2013-05-07T10:56:48Z</time>
      </trkpt>
      <trkpt lat="44.52084" lon="5.75261">
        <ele>761.5014648</ele>
        <time>2013-05-07T10:56:53Z</time>
      </trkpt>
      <trkpt lat="44.52061" lon="5.7531">
        <ele>760.0593262</ele>
        <time>2013-05-07T10:57:06Z</time>
      </trkpt>
      <trkpt lat="44.52033" lon="5.75365">
        <ele>758.6174316</ele>
        <time>2013-05-07T10:57:19Z</time>
      </trkpt>
      <trkpt lat="44.52004" lon="5.75406">
        <ele>758.6174316</ele>
        <time>2013-05-07T10:57:30Z</time>
      </trkpt>
      <trkpt lat="44.51967" lon="5.75439">
        <ele>759.0981445</ele>
        <time>2013-05-07T10:57:42Z</time>
      </trkpt>
      <trkpt lat="44.51966" lon="5.75442">
        <ele>758.1369629</ele>
        <time>2013-05-07T10:57:43Z</time>
      </trkpt>
      <trkpt lat="44.51977" lon="5.75466">
        <ele>758.1369629</ele>
        <time>2013-05-07T10:57:50Z</time>
      </trkpt>
      <trkpt lat="44.52019" lon="5.75486">
        <ele>759.5788574</ele>
        <time>2013-05-07T10:58:01Z</time>
      </trkpt>
      <trkpt lat="44.52068" lon="5.75502">
        <ele>758.6174316</ele>
        <time>2013-05-07T10:58:14Z</time>
      </trkpt>
      <trkpt lat="44.52114" lon="5.75524">
        <ele>758.6174316</ele>
        <time>2013-05-07T10:58:30Z</time>
      </trkpt>
      <trkpt lat="44.52109" lon="5.75531">
        <ele>757.1755371</ele>
        <time>2013-05-07T10:58:34Z</time>
      </trkpt>
      <trkpt lat="44.52104" lon="5.75531">
        <ele>755.7336426</ele>
        <time>2013-05-07T10:58:36Z</time>
      </trkpt>
      <trkpt lat="44.52093" lon="5.75529">
        <ele>756.6948242</ele>
        <time>2013-05-07T10:58:40Z</time>
      </trkpt>
      <trkpt lat="44.52086" lon="5.75525">
        <ele>755.2529297</ele>
        <time>2013-05-07T10:58:43Z</time>
      </trkpt>
      <trkpt lat="44.52077" lon="5.75519">
        <ele>756.2141113</ele>
        <time>2013-05-07T10:58:46Z</time>
      </trkpt>
      <trkpt lat="44.52041" lon="5.75513">
        <ele>755.7336426</ele>
        <time>2013-05-07T10:58:59Z</time>
      </trkpt>
      <trkpt lat="44.52033" lon="5.75526">
        <ele>756.2141113</ele>
        <time>2013-05-07T10:59:06Z</time>
      </trkpt>
      <trkpt lat="44.52025" lon="5.7554">
        <ele>756.2141113</ele>
        <time>2013-05-07T10:59:13Z</time>
      </trkpt>
      <trkpt lat="44.52035" lon="5.75555">
        <ele>756.6948242</ele>
        <time>2013-05-07T10:59:18Z</time>
      </trkpt>
      <trkpt lat="44.52039" lon="5.75558">
        <ele>755.2529297</ele>
        <time>2013-05-07T10:59:20Z</time>
      </trkpt>
      <trkpt lat="44.52084" lon="5.75594">
        <ele>754.7722168</ele>
        <time>2013-05-07T10:59:37Z</time>
      </trkpt>
      <trkpt lat="44.52137" lon="5.75645">
        <ele>755.2529297</ele>
        <time>2013-05-07T10:59:56Z</time>
      </trkpt>
      <trkpt lat="44.52139" lon="5.75647">
        <ele>755.2529297</ele>
        <time>2013-05-07T10:59:57Z</time>
      </trkpt>
      <trkpt lat="44.52181" lon="5.75681">
        <ele>754.7722168</ele>
        <time>2013-05-07T11:00:12Z</time>
      </trkpt>
      <trkpt lat="44.5222" lon="5.75716">
        <ele>756.2141113</ele>
        <time>2013-05-07T11:00:27Z</time>
      </trkpt>
      <trkpt lat="44.52251" lon="5.75746">
        <ele>755.2529297</ele>
        <time>2013-05-07T11:00:39Z</time>
      </trkpt>
      <trkpt lat="44.52291" lon="5.75788">
        <ele>756.6948242</ele>
        <time>2013-05-07T11:00:56Z</time>
      </trkpt>
      <trkpt lat="44.52328" lon="5.75827">
        <ele>758.1369629</ele>
        <time>2013-05-07T11:01:15Z</time>
      </trkpt>
      <trkpt lat="44.52355" lon="5.75848">
        <ele>758.6174316</ele>
        <time>2013-05-07T11:01:29Z</time>
      </trkpt>
      <trkpt lat="44.52357" lon="5.75914">
        <ele>756.6948242</ele>
        <time>2013-05-07T11:01:43Z</time>
      </trkpt>
      <trkpt lat="44.52384" lon="5.7599">
        <ele>757.1755371</ele>
        <time>2013-05-07T11:02:02Z</time>
      </trkpt>
      <trkpt lat="44.52408" lon="5.76036">
        <ele>757.1755371</ele>
        <time>2013-05-07T11:02:16Z</time>
      </trkpt>
      <trkpt lat="44.52422" lon="5.76084">
        <ele>758.1369629</ele>
        <time>2013-05-07T11:02:30Z</time>
      </trkpt>
      <trkpt lat="44.52443" lon="5.76152">
        <ele>758.1369629</ele>
        <time>2013-05-07T11:02:49Z</time>
      </trkpt>
      <trkpt lat="44.52453" lon="5.76185">
        <ele>759.0981445</ele>
        <time>2013-05-07T11:02:57Z</time>
      </trkpt>
      <trkpt lat="44.52454" lon="5.76257">
        <ele>757.65625</ele>
        <time>2013-05-07T11:03:13Z</time>
      </trkpt>
      <trkpt lat="44.52455" lon="5.76329">
        <ele>759.0981445</ele>
        <time>2013-05-07T11:03:29Z</time>
      </trkpt>
      <trkpt lat="44.52457" lon="5.76396">
        <ele>759.5788574</ele>
        <time>2013-05-07T11:03:46Z</time>
      </trkpt>
      <trkpt lat="44.52473" lon="5.76449">
        <ele>761.5014648</ele>
        <time>2013-05-07T11:04:01Z</time>
      </trkpt>
      <trkpt lat="44.52506" lon="5.76499">
        <ele>761.020752</ele>
        <time>2013-05-07T11:04:17Z</time>
      </trkpt>
      <trkpt lat="44.52522" lon="5.76519">
        <ele>761.9821777</ele>
        <time>2013-05-07T11:04:24Z</time>
      </trkpt>
      <trkpt lat="44.52555" lon="5.76559">
        <ele>761.020752</ele>
        <time>2013-05-07T11:04:37Z</time>
      </trkpt>
      <trkpt lat="44.52581" lon="5.76597">
        <ele>762.4626465</ele>
        <time>2013-05-07T11:04:49Z</time>
      </trkpt>
      <trkpt lat="44.52604" lon="5.76633">
        <ele>762.4626465</ele>
        <time>2013-05-07T11:04:59Z</time>
      </trkpt>
      <trkpt lat="44.52624" lon="5.76649">
        <ele>764.385498</ele>
        <time>2013-05-07T11:05:07Z</time>
      </trkpt>
      <trkpt lat="44.52637" lon="5.76655">
        <ele>764.8662109</ele>
        <time>2013-05-07T11:05:13Z</time>
      </trkpt>
      <trkpt lat="44.52653" lon="5.76666">
        <ele>763.904541</ele>
        <time>2013-05-07T11:05:20Z</time>
      </trkpt>
      <trkpt lat="44.52674" lon="5.76689">
        <ele>764.385498</ele>
        <time>2013-05-07T11:05:29Z</time>
      </trkpt>
      <trkpt lat="44.5269" lon="5.76708">
        <ele>763.4240723</ele>
        <time>2013-05-07T11:05:37Z</time>
      </trkpt>
      <trkpt lat="44.52726" lon="5.76751">
        <ele>764.385498</ele>
        <time>2013-05-07T11:05:52Z</time>
      </trkpt>
      <trkpt lat="44.52729" lon="5.76755">
        <ele>764.385498</ele>
        <time>2013-05-07T11:05:53Z</time>
      </trkpt>
      <trkpt lat="44.52774" lon="5.76811">
        <ele>765.3469238</ele>
        <time>2013-05-07T11:06:12Z</time>
      </trkpt>
      <trkpt lat="44.52779" lon="5.76816">
        <ele>764.8662109</ele>
        <time>2013-05-07T11:06:14Z</time>
      </trkpt>
      <trkpt lat="44.5281" lon="5.76855">
        <ele>765.3469238</ele>
        <time>2013-05-07T11:06:28Z</time>
      </trkpt>
      <trkpt lat="44.52838" lon="5.76894">
        <ele>765.8276367</ele>
        <time>2013-05-07T11:06:41Z</time>
      </trkpt>
      <trkpt lat="44.52868" lon="5.76932">
        <ele>765.3469238</ele>
        <time>2013-05-07T11:06:55Z</time>
      </trkpt>
      <trkpt lat="44.52899" lon="5.7697">
        <ele>766.3081055</ele>
        <time>2013-05-07T11:07:10Z</time>
      </trkpt>
      <trkpt lat="44.52904" lon="5.76976">
        <ele>766.3081055</ele>
        <time>2013-05-07T11:07:14Z</time>
      </trkpt>
      <trkpt lat="44.529" lon="5.76984">
        <ele>766.3081055</ele>
        <time>2013-05-07T11:07:18Z</time>
      </trkpt>
      <trkpt lat="44.52874" lon="5.77022">
        <ele>766.3081055</ele>
        <time>2013-05-07T11:07:35Z</time>
      </trkpt>
      <trkpt lat="44.52871" lon="5.77029">
        <ele>765.8276367</ele>
        <time>2013-05-07T11:07:37Z</time>
      </trkpt>
      <trkpt lat="44.52866" lon="5.77096">
        <ele>765.8276367</ele>
        <time>2013-05-07T11:07:52Z</time>
      </trkpt>
      <trkpt lat="44.52854" lon="5.77137">
        <ele>767.75</ele>
        <time>2013-05-07T11:08:07Z</time>
      </trkpt>
      <trkpt lat="44.52829" lon="5.77173">
        <ele>771.1147461</ele>
        <time>2013-05-07T11:08:25Z</time>
      </trkpt>
      <trkpt lat="44.52808" lon="5.77203">
        <ele>772.5566406</ele>
        <time>2013-05-07T11:08:41Z</time>
      </trkpt>
      <trkpt lat="44.52786" lon="5.77232">
        <ele>774.479248</ele>
        <time>2013-05-07T11:08:59Z</time>
      </trkpt>
      <trkpt lat="44.52763" lon="5.77263">
        <ele>776.8825684</ele>
        <time>2013-05-07T11:09:18Z</time>
      </trkpt>
      <trkpt lat="44.52745" lon="5.77284">
        <ele>778.8051758</ele>
        <time>2013-05-07T11:09:31Z</time>
      </trkpt>
      <trkpt lat="44.52712" lon="5.77283">
        <ele>781.2087402</ele>
        <time>2013-05-07T11:09:51Z</time>
      </trkpt>
      <trkpt lat="44.52678" lon="5.77275">
        <ele>782.1699219</ele>
        <time>2013-05-07T11:10:11Z</time>
      </trkpt>
      <trkpt lat="44.52646" lon="5.77263">
        <ele>783.1311035</ele>
        <time>2013-05-07T11:10:27Z</time>
      </trkpt>
      <trkpt lat="44.52616" lon="5.77255">
        <ele>784.5732422</ele>
        <time>2013-05-07T11:10:45Z</time>
      </trkpt>
      <trkpt lat="44.52597" lon="5.77228">
        <ele>786.0151367</ele>
        <time>2013-05-07T11:10:58Z</time>
      </trkpt>
      <trkpt lat="44.52584" lon="5.77203">
        <ele>786.4958496</ele>
        <time>2013-05-07T11:11:09Z</time>
      </trkpt>
      <trkpt lat="44.52577" lon="5.77201">
        <ele>787.4570313</ele>
        <time>2013-05-07T11:11:13Z</time>
      </trkpt>
      <trkpt lat="44.52559" lon="5.77209">
        <ele>789.3796387</ele>
        <time>2013-05-07T11:11:26Z</time>
      </trkpt>
      <trkpt lat="44.52548" lon="5.77218">
        <ele>792.2636719</ele>
        <time>2013-05-07T11:11:37Z</time>
      </trkpt>
      <trkpt lat="44.52547" lon="5.77219">
        <ele>792.2636719</ele>
        <time>2013-05-07T11:11:38Z</time>
      </trkpt>
      <trkpt lat="44.5253" lon="5.77237">
        <ele>796.5898438</ele>
        <time>2013-05-07T11:11:58Z</time>
      </trkpt>
      <trkpt lat="44.52529" lon="5.77237">
        <ele>796.5898438</ele>
        <time>2013-05-07T11:11:59Z</time>
      </trkpt>
      <trkpt lat="44.52511" lon="5.77242">
        <ele>798.0317383</ele>
        <time>2013-05-07T11:12:12Z</time>
      </trkpt>
      <trkpt lat="44.52505" lon="5.77251">
        <ele>798.9929199</ele>
        <time>2013-05-07T11:12:18Z</time>
      </trkpt>
      <trkpt lat="44.52497" lon="5.7726">
        <ele>799.4736328</ele>
        <time>2013-05-07T11:12:25Z</time>
      </trkpt>
      <trkpt lat="44.52495" lon="5.7727">
        <ele>801.3962402</ele>
        <time>2013-05-07T11:12:33Z</time>
      </trkpt>
      <trkpt lat="44.52495" lon="5.77271">
        <ele>801.8769531</ele>
        <time>2013-05-07T11:12:34Z</time>
      </trkpt>
      <trkpt lat="44.52489" lon="5.77289">
        <ele>802.8381348</ele>
        <time>2013-05-07T11:12:45Z</time>
      </trkpt>
      <trkpt lat="44.52479" lon="5.77304">
        <ele>803.7995605</ele>
        <time>2013-05-07T11:12:56Z</time>
      </trkpt>
      <trkpt lat="44.52476" lon="5.77322">
        <ele>805.722168</ele>
        <time>2013-05-07T11:13:09Z</time>
      </trkpt>
      <trkpt lat="44.52481" lon="5.77349">
        <ele>808.1254883</ele>
        <time>2013-05-07T11:13:26Z</time>
      </trkpt>
      <trkpt lat="44.52484" lon="5.77355">
        <ele>809.5673828</ele>
        <time>2013-05-07T11:13:31Z</time>
      </trkpt>
      <trkpt lat="44.52484" lon="5.7736">
        <ele>809.5673828</ele>
        <time>2013-05-07T11:13:33Z</time>
      </trkpt>
      <trkpt lat="44.52488" lon="5.77365">
        <ele>810.0478516</ele>
        <time>2013-05-07T11:13:37Z</time>
      </trkpt>
      <trkpt lat="44.5249" lon="5.77373">
        <ele>810.0478516</ele>
        <time>2013-05-07T11:13:41Z</time>
      </trkpt>
      <trkpt lat="44.52505" lon="5.77398">
        <ele>812.451416</ele>
        <time>2013-05-07T11:13:59Z</time>
      </trkpt>
      <trkpt lat="44.525" lon="5.7741">
        <ele>814.3740234</ele>
        <time>2013-05-07T11:14:07Z</time>
      </trkpt>
      <trkpt lat="44.52487" lon="5.77415">
        <ele>815.3354492</ele>
        <time>2013-05-07T11:14:19Z</time>
      </trkpt>
      <trkpt lat="44.52467" lon="5.77417">
        <ele>817.2580566</ele>
        <time>2013-05-07T11:14:33Z</time>
      </trkpt>
      <trkpt lat="44.52445" lon="5.77418">
        <ele>819.661377</ele>
        <time>2013-05-07T11:14:49Z</time>
      </trkpt>
      <trkpt lat="44.52417" lon="5.77419">
        <ele>822.545166</ele>
        <time>2013-05-07T11:15:08Z</time>
      </trkpt>
      <trkpt lat="44.52407" lon="5.77429">
        <ele>823.9870605</ele>
        <time>2013-05-07T11:15:19Z</time>
      </trkpt>
      <trkpt lat="44.524" lon="5.77457">
        <ele>827.8322754</ele>
        <time>2013-05-07T11:15:37Z</time>
      </trkpt>
      <trkpt lat="44.52399" lon="5.7746">
        <ele>828.3132324</ele>
        <time>2013-05-07T11:15:39Z</time>
      </trkpt>
      <trkpt lat="44.52398" lon="5.77493">
        <ele>830.7165527</ele>
        <time>2013-05-07T11:16:01Z</time>
      </trkpt>
      <trkpt lat="44.52396" lon="5.77504">
        <ele>831.6777344</ele>
        <time>2013-05-07T11:16:08Z</time>
      </trkpt>
      <trkpt lat="44.52394" lon="5.77533">
        <ele>833.6003418</ele>
        <time>2013-05-07T11:16:24Z</time>
      </trkpt>
      <trkpt lat="44.52387" lon="5.77553">
        <ele>834.0810547</ele>
        <time>2013-05-07T11:16:36Z</time>
      </trkpt>
      <trkpt lat="44.52382" lon="5.77583">
        <ele>836.484375</ele>
        <time>2013-05-07T11:16:55Z</time>
      </trkpt>
      <trkpt lat="44.52381" lon="5.77605">
        <ele>837.9262695</ele>
        <time>2013-05-07T11:17:08Z</time>
      </trkpt>
      <trkpt lat="44.52383" lon="5.77621">
        <ele>839.3681641</ele>
        <time>2013-05-07T11:17:17Z</time>
      </trkpt>
      <trkpt lat="44.52385" lon="5.77627">
        <ele>839.848877</ele>
        <time>2013-05-07T11:17:21Z</time>
      </trkpt>
      <trkpt lat="44.52386" lon="5.7763">
        <ele>840.3295898</ele>
        <time>2013-05-07T11:17:23Z</time>
      </trkpt>
      <trkpt lat="44.52387" lon="5.77639">
        <ele>840.8100586</ele>
        <time>2013-05-07T11:17:28Z</time>
      </trkpt>
      <trkpt lat="44.52389" lon="5.77645">
        <ele>841.7714844</ele>
        <time>2013-05-07T11:17:33Z</time>
      </trkpt>
      <trkpt lat="44.5239" lon="5.77649">
        <ele>841.7714844</ele>
        <time>2013-05-07T11:17:36Z</time>
      </trkpt>
      <trkpt lat="44.52391" lon="5.77653">
        <ele>842.2521973</ele>
        <time>2013-05-07T11:17:39Z</time>
      </trkpt>
      <trkpt lat="44.52396" lon="5.7766">
        <ele>842.7329102</ele>
        <time>2013-05-07T11:17:43Z</time>
      </trkpt>
      <trkpt lat="44.52412" lon="5.77697">
        <ele>845.1362305</ele>
        <time>2013-05-07T11:18:07Z</time>
      </trkpt>
      <trkpt lat="44.52417" lon="5.77707">
        <ele>846.0976563</ele>
        <time>2013-05-07T11:18:14Z</time>
      </trkpt>
      <trkpt lat="44.5242" lon="5.7772">
        <ele>846.5783691</ele>
        <time>2013-05-07T11:18:22Z</time>
      </trkpt>
      <trkpt lat="44.52422" lon="5.77733">
        <ele>847.0588379</ele>
        <time>2013-05-07T11:18:30Z</time>
      </trkpt>
      <trkpt lat="44.52422" lon="5.77765">
        <ele>849.9428711</ele>
        <time>2013-05-07T11:18:48Z</time>
      </trkpt>
      <trkpt lat="44.52422" lon="5.77768">
        <ele>849.9428711</ele>
        <time>2013-05-07T11:18:51Z</time>
      </trkpt>
      <trkpt lat="44.52421" lon="5.77798">
        <ele>852.3459473</ele>
        <time>2013-05-07T11:19:08Z</time>
      </trkpt>
      <trkpt lat="44.52417" lon="5.77823">
        <ele>855.2299805</ele>
        <time>2013-05-07T11:19:29Z</time>
      </trkpt>
      <trkpt lat="44.52413" lon="5.77845">
        <ele>857.1525879</ele>
        <time>2013-05-07T11:19:45Z</time>
      </trkpt>
      <trkpt lat="44.52412" lon="5.77862">
        <ele>858.5944824</ele>
        <time>2013-05-07T11:19:57Z</time>
      </trkpt>
      <trkpt lat="44.52411" lon="5.77899">
        <ele>860.9980469</ele>
        <time>2013-05-07T11:20:16Z</time>
      </trkpt>
      <trkpt lat="44.52413" lon="5.77911">
        <ele>861.9594727</ele>
        <time>2013-05-07T11:20:22Z</time>
      </trkpt>
      <trkpt lat="44.52422" lon="5.77935">
        <ele>864.8432617</ele>
        <time>2013-05-07T11:20:41Z</time>
      </trkpt>
      <trkpt lat="44.52424" lon="5.77941">
        <ele>865.3239746</ele>
        <time>2013-05-07T11:20:45Z</time>
      </trkpt>
      <trkpt lat="44.52431" lon="5.77949">
        <ele>866.7658691</ele>
        <time>2013-05-07T11:20:53Z</time>
      </trkpt>
      <trkpt lat="44.52433" lon="5.77968">
        <ele>867.7270508</ele>
        <time>2013-05-07T11:21:06Z</time>
      </trkpt>
      <trkpt lat="44.52438" lon="5.7799">
        <ele>869.1691895</ele>
        <time>2013-05-07T11:21:18Z</time>
      </trkpt>
      <trkpt lat="44.52442" lon="5.78002">
        <ele>870.1303711</ele>
        <time>2013-05-07T11:21:25Z</time>
      </trkpt>
      <trkpt lat="44.52444" lon="5.78013">
        <ele>870.611084</ele>
        <time>2013-05-07T11:21:31Z</time>
      </trkpt>
      <trkpt lat="44.52446" lon="5.78019">
        <ele>871.0917969</ele>
        <time>2013-05-07T11:21:35Z</time>
      </trkpt>
      <trkpt lat="44.52459" lon="5.78045">
        <ele>873.4951172</ele>
        <time>2013-05-07T11:21:55Z</time>
      </trkpt>
      <trkpt lat="44.52462" lon="5.78048">
        <ele>873.4951172</ele>
        <time>2013-05-07T11:21:58Z</time>
      </trkpt>
      <trkpt lat="44.52466" lon="5.78064">
        <ele>875.4174805</ele>
        <time>2013-05-07T11:22:09Z</time>
      </trkpt>
      <trkpt lat="44.5247" lon="5.78072">
        <ele>876.3791504</ele>
        <time>2013-05-07T11:22:15Z</time>
      </trkpt>
      <trkpt lat="44.52483" lon="5.78086">
        <ele>877.8210449</ele>
        <time>2013-05-07T11:22:27Z</time>
      </trkpt>
      <trkpt lat="44.525" lon="5.78116">
        <ele>880.2243652</ele>
        <time>2013-05-07T11:22:51Z</time>
      </trkpt>
      <trkpt lat="44.52505" lon="5.78111">
        <ele>880.2243652</ele>
        <time>2013-05-07T11:23:14Z</time>
      </trkpt>
      <trkpt lat="44.52508" lon="5.7811">
        <ele>880.7050781</ele>
        <time>2013-05-07T11:24:00Z</time>
      </trkpt>
      <trkpt lat="44.52511" lon="5.78114">
        <ele>880.7050781</ele>
        <time>2013-05-07T11:24:43Z</time>
      </trkpt>
      <trkpt lat="44.52513" lon="5.78123">
        <ele>880.2243652</ele>
        <time>2013-05-07T11:24:47Z</time>
      </trkpt>
      <trkpt lat="44.52524" lon="5.78162">
        <ele>881.6662598</ele>
        <time>2013-05-07T11:25:06Z</time>
      </trkpt>
      <trkpt lat="44.52528" lon="5.7818">
        <ele>881.6662598</ele>
        <time>2013-05-07T11:25:13Z</time>
      </trkpt>
      <trkpt lat="44.52531" lon="5.78187">
        <ele>882.1469727</ele>
        <time>2013-05-07T11:25:16Z</time>
      </trkpt>
      <trkpt lat="44.52539" lon="5.78215">
        <ele>883.1081543</ele>
        <time>2013-05-07T11:25:28Z</time>
      </trkpt>
      <trkpt lat="44.52544" lon="5.78242">
        <ele>884.0695801</ele>
        <time>2013-05-07T11:25:40Z</time>
      </trkpt>
      <trkpt lat="44.52547" lon="5.78275">
        <ele>885.5114746</ele>
        <time>2013-05-07T11:25:54Z</time>
      </trkpt>
      <trkpt lat="44.52547" lon="5.78284">
        <ele>885.5114746</ele>
        <time>2013-05-07T11:25:58Z</time>
      </trkpt>
      <trkpt lat="44.52548" lon="5.78293">
        <ele>885.9921875</ele>
        <time>2013-05-07T11:26:03Z</time>
      </trkpt>
      <trkpt lat="44.5255" lon="5.78307">
        <ele>886.4729004</ele>
        <time>2013-05-07T11:26:10Z</time>
      </trkpt>
      <trkpt lat="44.52559" lon="5.78346">
        <ele>886.4729004</ele>
        <time>2013-05-07T11:26:26Z</time>
      </trkpt>
      <trkpt lat="44.52559" lon="5.78352">
        <ele>886.9533691</ele>
        <time>2013-05-07T11:26:29Z</time>
      </trkpt>
      <trkpt lat="44.5256" lon="5.78355">
        <ele>886.9533691</ele>
        <time>2013-05-07T11:26:31Z</time>
      </trkpt>
      <trkpt lat="44.52565" lon="5.78365">
        <ele>887.434082</ele>
        <time>2013-05-07T11:26:36Z</time>
      </trkpt>
      <trkpt lat="44.52572" lon="5.78376">
        <ele>886.9533691</ele>
        <time>2013-05-07T11:26:41Z</time>
      </trkpt>
      <trkpt lat="44.5259" lon="5.78395">
        <ele>886.9533691</ele>
        <time>2013-05-07T11:26:52Z</time>
      </trkpt>
      <trkpt lat="44.5262" lon="5.7841">
        <ele>887.434082</ele>
        <time>2013-05-07T11:27:01Z</time>
      </trkpt>
      <trkpt lat="44.52649" lon="5.78429">
        <ele>887.9147949</ele>
        <time>2013-05-07T11:27:12Z</time>
      </trkpt>
      <trkpt lat="44.52678" lon="5.78442">
        <ele>888.8762207</ele>
        <time>2013-05-07T11:27:25Z</time>
      </trkpt>
      <trkpt lat="44.52712" lon="5.7846">
        <ele>889.8374023</ele>
        <time>2013-05-07T11:27:38Z</time>
      </trkpt>
      <trkpt lat="44.52741" lon="5.78474">
        <ele>890.3181152</ele>
        <time>2013-05-07T11:27:51Z</time>
      </trkpt>
      <trkpt lat="44.52764" lon="5.78484">
        <ele>890.3181152</ele>
        <time>2013-05-07T11:28:02Z</time>
      </trkpt>
      <trkpt lat="44.52796" lon="5.78501">
        <ele>890.798584</ele>
        <time>2013-05-07T11:28:15Z</time>
      </trkpt>
      <trkpt lat="44.52831" lon="5.78518">
        <ele>892.7216797</ele>
        <time>2013-05-07T11:28:31Z</time>
      </trkpt>
      <trkpt lat="44.52855" lon="5.78527">
        <ele>893.6828613</ele>
        <time>2013-05-07T11:28:43Z</time>
      </trkpt>
      <trkpt lat="44.52862" lon="5.78532">
        <ele>894.1635742</ele>
        <time>2013-05-07T11:28:50Z</time>
      </trkpt>
      <trkpt lat="44.52863" lon="5.78537">
        <ele>894.644043</ele>
        <time>2013-05-07T11:28:52Z</time>
      </trkpt>
      <trkpt lat="44.52892" lon="5.78564">
        <ele>896.0861816</ele>
        <time>2013-05-07T11:29:10Z</time>
      </trkpt>
      <trkpt lat="44.52902" lon="5.78572">
        <ele>896.0861816</ele>
        <time>2013-05-07T11:29:16Z</time>
      </trkpt>
      <trkpt lat="44.52914" lon="5.78593">
        <ele>896.5668945</ele>
        <time>2013-05-07T11:29:25Z</time>
      </trkpt>
      <trkpt lat="44.52918" lon="5.78611">
        <ele>897.0473633</ele>
        <time>2013-05-07T11:29:33Z</time>
      </trkpt>
      <trkpt lat="44.52917" lon="5.78621">
        <ele>897.0473633</ele>
        <time>2013-05-07T11:29:37Z</time>
      </trkpt>
      <trkpt lat="44.52905" lon="5.78659">
        <ele>897.5280762</ele>
        <time>2013-05-07T11:29:49Z</time>
      </trkpt>
      <trkpt lat="44.5289" lon="5.78704">
        <ele>897.5280762</ele>
        <time>2013-05-07T11:29:59Z</time>
      </trkpt>
      <trkpt lat="44.52868" lon="5.78762">
        <ele>898.0087891</ele>
        <time>2013-05-07T11:30:13Z</time>
      </trkpt>
      <trkpt lat="44.52866" lon="5.78766">
        <ele>898.0087891</ele>
        <time>2013-05-07T11:30:14Z</time>
      </trkpt>
      <trkpt lat="44.52844" lon="5.78811">
        <ele>898.0087891</ele>
        <time>2013-05-07T11:30:25Z</time>
      </trkpt>
      <trkpt lat="44.52824" lon="5.78857">
        <ele>895.6054688</ele>
        <time>2013-05-07T11:30:35Z</time>
      </trkpt>
      <trkpt lat="44.52822" lon="5.78872">
        <ele>894.644043</ele>
        <time>2013-05-07T11:30:37Z</time>
      </trkpt>
      <trkpt lat="44.5282" lon="5.78888">
        <ele>893.6828613</ele>
        <time>2013-05-07T11:30:39Z</time>
      </trkpt>
      <trkpt lat="44.52805" lon="5.78998">
        <ele>890.798584</ele>
        <time>2013-05-07T11:30:54Z</time>
      </trkpt>
      <trkpt lat="44.52805" lon="5.79041">
        <ele>889.8374023</ele>
        <time>2013-05-07T11:31:01Z</time>
      </trkpt>
      <trkpt lat="44.52798" lon="5.79106">
        <ele>889.8374023</ele>
        <time>2013-05-07T11:31:14Z</time>
      </trkpt>
      <trkpt lat="44.52795" lon="5.79177">
        <ele>890.3181152</ele>
        <time>2013-05-07T11:31:27Z</time>
      </trkpt>
      <trkpt lat="44.52824" lon="5.79261">
        <ele>890.3181152</ele>
        <time>2013-05-07T11:31:43Z</time>
      </trkpt>
      <trkpt lat="44.52852" lon="5.79307">
        <ele>891.2792969</ele>
        <time>2013-05-07T11:31:55Z</time>
      </trkpt>
      <trkpt lat="44.52874" lon="5.79352">
        <ele>890.798584</ele>
        <time>2013-05-07T11:32:07Z</time>
      </trkpt>
      <trkpt lat="44.52895" lon="5.79382">
        <ele>890.3181152</ele>
        <time>2013-05-07T11:32:18Z</time>
      </trkpt>
      <trkpt lat="44.52918" lon="5.79418">
        <ele>890.798584</ele>
        <time>2013-05-07T11:32:29Z</time>
      </trkpt>
      <trkpt lat="44.52943" lon="5.79468">
        <ele>891.7600098</ele>
        <time>2013-05-07T11:32:43Z</time>
      </trkpt>
      <trkpt lat="44.5295" lon="5.79484">
        <ele>892.2409668</ele>
        <time>2013-05-07T11:32:44Z</time>
      </trkpt>
      <trkpt lat="44.52938" lon="5.79481">
        <ele>892.7216797</ele>
        <time>2013-05-07T11:32:49Z</time>
      </trkpt>
      <trkpt lat="44.52916" lon="5.79471">
        <ele>893.2021484</ele>
        <time>2013-05-07T11:33:01Z</time>
      </trkpt>
      <trkpt lat="44.52905" lon="5.79464">
        <ele>894.1635742</ele>
        <time>2013-05-07T11:33:07Z</time>
      </trkpt>
      <trkpt lat="44.52885" lon="5.79452">
        <ele>895.6054688</ele>
        <time>2013-05-07T11:33:19Z</time>
      </trkpt>
      <trkpt lat="44.52856" lon="5.79432">
        <ele>897.0473633</ele>
        <time>2013-05-07T11:33:38Z</time>
      </trkpt>
      <trkpt lat="44.52822" lon="5.79416">
        <ele>897.5280762</ele>
        <time>2013-05-07T11:33:57Z</time>
      </trkpt>
      <trkpt lat="44.52789" lon="5.79409">
        <ele>897.5280762</ele>
        <time>2013-05-07T11:34:15Z</time>
      </trkpt>
      <trkpt lat="44.52759" lon="5.79407">
        <ele>898.4892578</ele>
        <time>2013-05-07T11:34:29Z</time>
      </trkpt>
      <trkpt lat="44.52728" lon="5.79395">
        <ele>899.4506836</ele>
        <time>2013-05-07T11:34:43Z</time>
      </trkpt>
      <trkpt lat="44.52715" lon="5.79395">
        <ele>898.9699707</ele>
        <time>2013-05-07T11:34:50Z</time>
      </trkpt>
      <trkpt lat="44.52701" lon="5.79388">
        <ele>900.4121094</ele>
        <time>2013-05-07T11:34:58Z</time>
      </trkpt>
      <trkpt lat="44.52678" lon="5.79374">
        <ele>902.3344727</ele>
        <time>2013-05-07T11:35:16Z</time>
      </trkpt>
      <trkpt lat="44.52677" lon="5.79373">
        <ele>902.3344727</ele>
        <time>2013-05-07T11:35:17Z</time>
      </trkpt>
      <trkpt lat="44.52666" lon="5.79346">
        <ele>903.2958984</ele>
        <time>2013-05-07T11:35:35Z</time>
      </trkpt>
      <trkpt lat="44.52648" lon="5.79312">
        <ele>906.6604004</ele>
        <time>2013-05-07T11:36:06Z</time>
      </trkpt>
      <trkpt lat="44.52637" lon="5.79296">
        <ele>910.0251465</ele>
        <time>2013-05-07T11:36:31Z</time>
      </trkpt>
      <trkpt lat="44.52633" lon="5.79295">
        <ele>910.9865723</ele>
        <time>2013-05-07T11:36:41Z</time>
      </trkpt>
      <trkpt lat="44.52633" lon="5.79295">
        <ele>909.5446777</ele>
        <time>2013-05-07T11:36:43Z</time>
      </trkpt>
      <trkpt lat="44.5262" lon="5.79279">
        <ele>911.947998</ele>
        <time>2013-05-07T11:37:03Z</time>
      </trkpt>
      <trkpt lat="44.52618" lon="5.79267">
        <ele>913.8703613</ele>
        <time>2013-05-07T11:37:13Z</time>
      </trkpt>
      <trkpt lat="44.52617" lon="5.79245">
        <ele>914.8317871</ele>
        <time>2013-05-07T11:37:32Z</time>
      </trkpt>
      <trkpt lat="44.52618" lon="5.79234">
        <ele>915.7932129</ele>
        <time>2013-05-07T11:37:44Z</time>
      </trkpt>
      <trkpt lat="44.52619" lon="5.79231">
        <ele>915.7932129</ele>
        <time>2013-05-07T11:37:47Z</time>
      </trkpt>
      <trkpt lat="44.5262" lon="5.79228">
        <ele>916.2736816</ele>
        <time>2013-05-07T11:37:50Z</time>
      </trkpt>
      <trkpt lat="44.52619" lon="5.79221">
        <ele>916.2736816</ele>
        <time>2013-05-07T11:37:55Z</time>
      </trkpt>
      <trkpt lat="44.52616" lon="5.79218">
        <ele>916.7543945</ele>
        <time>2013-05-07T11:37:57Z</time>
      </trkpt>
      <trkpt lat="44.52617" lon="5.79214">
        <ele>916.7543945</ele>
        <time>2013-05-07T11:38:01Z</time>
      </trkpt>
      <trkpt lat="44.52615" lon="5.79205">
        <ele>917.2351074</ele>
        <time>2013-05-07T11:38:06Z</time>
      </trkpt>
      <trkpt lat="44.52612" lon="5.79212">
        <ele>916.7543945</ele>
        <time>2013-05-07T11:38:09Z</time>
      </trkpt>
      <trkpt lat="44.5261" lon="5.79211">
        <ele>917.2351074</ele>
        <time>2013-05-07T11:38:16Z</time>
      </trkpt>
      <trkpt lat="44.52611" lon="5.79211">
        <ele>917.2351074</ele>
        <time>2013-05-07T11:38:19Z</time>
      </trkpt>
      <trkpt lat="44.52611" lon="5.79211">
        <ele>918.1962891</ele>
        <time>2013-05-07T11:38:33Z</time>
      </trkpt>
      <trkpt lat="44.52611" lon="5.79211">
        <ele>918.677002</ele>
        <time>2013-05-07T11:38:37Z</time>
      </trkpt>
      <trkpt lat="44.52611" lon="5.79211">
        <ele>918.677002</ele>
        <time>2013-05-07T11:38:44Z</time>
      </trkpt>
      <trkpt lat="44.52611" lon="5.79211">
        <ele>919.6384277</ele>
        <time>2013-05-07T11:38:49Z</time>
      </trkpt>
      <trkpt lat="44.52601" lon="5.79136">
        <ele>920.1188965</ele>
        <time>2013-05-07T11:38:52Z</time>
      </trkpt>
      <trkpt lat="44.52601" lon="5.79132">
        <ele>920.1188965</ele>
        <time>2013-05-07T11:38:57Z</time>
      </trkpt>
      <trkpt lat="44.52601" lon="5.79132">
        <ele>921.0803223</ele>
        <time>2013-05-07T11:39:10Z</time>
      </trkpt>
      <trkpt lat="44.52601" lon="5.79132">
        <ele>921.560791</ele>
        <time>2013-05-07T11:39:14Z</time>
      </trkpt>
      <trkpt lat="44.52601" lon="5.79132">
        <ele>922.5222168</ele>
        <time>2013-05-07T11:39:26Z</time>
      </trkpt>
      <trkpt lat="44.52601" lon="5.79132">
        <ele>923.9641113</ele>
        <time>2013-05-07T11:39:38Z</time>
      </trkpt>
      <trkpt lat="44.52633" lon="5.79053">
        <ele>924.9257813</ele>
        <time>2013-05-07T11:39:54Z</time>
      </trkpt>
      <trkpt lat="44.52633" lon="5.79053">
        <ele>924.9257813</ele>
        <time>2013-05-07T11:39:57Z</time>
      </trkpt>
      <trkpt lat="44.52635" lon="5.79049">
        <ele>925.40625</ele>
        <time>2013-05-07T11:40:04Z</time>
      </trkpt>
      <trkpt lat="44.52645" lon="5.79033">
        <ele>925.8869629</ele>
        <time>2013-05-07T11:40:15Z</time>
      </trkpt>
      <trkpt lat="44.52682" lon="5.79062">
        <ele>926.3676758</ele>
        <time>2013-05-07T11:40:17Z</time>
      </trkpt>
      <trkpt lat="44.52685" lon="5.7905">
        <ele>926.3676758</ele>
        <time>2013-05-07T11:40:25Z</time>
      </trkpt>
      <trkpt lat="44.52682" lon="5.79043">
        <ele>927.3291016</ele>
        <time>2013-05-07T11:40:32Z</time>
      </trkpt>
      <trkpt lat="44.52682" lon="5.79035">
        <ele>927.3291016</ele>
        <time>2013-05-07T11:40:37Z</time>
      </trkpt>
      <trkpt lat="44.52681" lon="5.79031">
        <ele>927.3291016</ele>
        <time>2013-05-07T11:40:39Z</time>
      </trkpt>
      <trkpt lat="44.52681" lon="5.79008">
        <ele>928.7709961</ele>
        <time>2013-05-07T11:40:53Z</time>
      </trkpt>
      <trkpt lat="44.5268" lon="5.79007">
        <ele>928.7709961</ele>
        <time>2013-05-07T11:40:54Z</time>
      </trkpt>
      <trkpt lat="44.52677" lon="5.78975">
        <ele>930.2128906</ele>
        <time>2013-05-07T11:41:11Z</time>
      </trkpt>
      <trkpt lat="44.52677" lon="5.78967">
        <ele>930.6936035</ele>
        <time>2013-05-07T11:41:16Z</time>
      </trkpt>
      <trkpt lat="44.52671" lon="5.78949">
        <ele>931.6547852</ele>
        <time>2013-05-07T11:41:32Z</time>
      </trkpt>
      <trkpt lat="44.52649" lon="5.78949">
        <ele>933.5773926</ele>
        <time>2013-05-07T11:41:52Z</time>
      </trkpt>
      <trkpt lat="44.52634" lon="5.78959">
        <ele>935.0195313</ele>
        <time>2013-05-07T11:42:10Z</time>
      </trkpt>
      <trkpt lat="44.52622" lon="5.7896">
        <ele>935.0195313</ele>
        <time>2013-05-07T11:42:30Z</time>
      </trkpt>
      <trkpt lat="44.52617" lon="5.78958">
        <ele>934.0581055</ele>
        <time>2013-05-07T11:42:57Z</time>
      </trkpt>
      <trkpt lat="44.52608" lon="5.78952">
        <ele>933.0966797</ele>
        <time>2013-05-07T11:43:28Z</time>
      </trkpt>
      <trkpt lat="44.5261" lon="5.78939">
        <ele>932.135498</ele>
        <time>2013-05-07T11:43:46Z</time>
      </trkpt>
      <trkpt lat="44.52611" lon="5.78929">
        <ele>931.6547852</ele>
        <time>2013-05-07T11:44:08Z</time>
      </trkpt>
      <trkpt lat="44.52613" lon="5.78917">
        <ele>932.135498</ele>
        <time>2013-05-07T11:44:20Z</time>
      </trkpt>
      <trkpt lat="44.52612" lon="5.78917">
        <ele>928.7709961</ele>
        <time>2013-05-07T11:45:14Z</time>
      </trkpt>
      <trkpt lat="44.52607" lon="5.78924">
        <ele>929.7321777</ele>
        <time>2013-05-07T11:45:26Z</time>
      </trkpt>
      <trkpt lat="44.52599" lon="5.78922">
        <ele>927.8095703</ele>
        <time>2013-05-07T11:46:01Z</time>
      </trkpt>
      <trkpt lat="44.52597" lon="5.7892">
        <ele>925.40625</ele>
        <time>2013-05-07T11:47:02Z</time>
      </trkpt>
      <trkpt lat="44.52604" lon="5.78914">
        <ele>923.0029297</ele>
        <time>2013-05-07T11:49:10Z</time>
      </trkpt>
      <trkpt lat="44.52604" lon="5.78914">
        <ele>922.5222168</ele>
        <time>2013-05-07T11:49:26Z</time>
      </trkpt>
      <trkpt lat="44.526" lon="5.78913">
        <ele>922.0415039</ele>
        <time>2013-05-07T11:49:42Z</time>
      </trkpt>
      <trkpt lat="44.52596" lon="5.78906">
        <ele>922.0415039</ele>
        <time>2013-05-07T11:50:10Z</time>
      </trkpt>
      <trkpt lat="44.52595" lon="5.78906">
        <ele>921.560791</ele>
        <time>2013-05-07T11:50:42Z</time>
      </trkpt>
      <trkpt lat="44.52596" lon="5.78903">
        <ele>920.1188965</ele>
        <time>2013-05-07T11:51:47Z</time>
      </trkpt>
      <trkpt lat="44.52596" lon="5.78899">
        <ele>919.6384277</ele>
        <time>2013-05-07T11:52:44Z</time>
      </trkpt>
      <trkpt lat="44.52595" lon="5.78895">
        <ele>918.1962891</ele>
        <time>2013-05-07T11:55:03Z</time>
      </trkpt>
      <trkpt lat="44.52593" lon="5.78891">
        <ele>918.1962891</ele>
        <time>2013-05-07T11:56:50Z</time>
      </trkpt>
    </trkseg>
  </trk>
  <rte>
    <name><![CDATA[LA SCIE]]></name>
      <rtept lat="44.42841" lon="6.19863">
        <ele>852.4</ele>
        <name><![CDATA[ D10 et Route]]></name>
      </rtept>
      <rtept lat="44.4259" lon="6.21131">
        <ele>914.6</ele>
        <name><![CDATA[Chemin]]></name>
      </rtept>
      <rtept lat="44.42062" lon="6.21125">
        <ele>930.2</ele>
        <name><![CDATA[Chemin1]]></name>
      </rtept>
      <rtept lat="44.41448" lon="6.21107">
        <ele>931.6</ele>
        <name><![CDATA[Champdarène]]></name>
      </rtept>
      <rtept lat="44.41459" lon="6.20959">
        <ele>924.2</ele>
        <name><![CDATA[Route et Chemin]]></name>
      </rtept>
      <rtept lat="44.41185" lon="6.21101">
        <ele>916.9</ele>
        <name><![CDATA[Ravin de Champdarène]]></name>
      </rtept>
      <rtept lat="44.4065" lon="6.21618">
        <ele>1001.2</ele>
        <name><![CDATA[Chaumenc]]></name>
      </rtept>
      <rtept lat="44.40167" lon="6.22017">
        <ele>1031.7</ele>
        <name><![CDATA[ D210 et Chemin]]></name>
      </rtept>
      <rtept lat="44.39725" lon="6.21925">
        <ele>1060.9</ele>
        <name><![CDATA[ D210]]></name>
      </rtept>
      <rtept lat="44.40178" lon="6.22547">
        <ele>1088.7</ele>
        <name><![CDATA[ D1 et Chemin]]></name>
      </rtept>
      <rtept lat="44.39994" lon="6.23515">
        <ele>1175.2</ele>
        <name><![CDATA[Col Des Garcinets]]></name>
      </rtept>
      <rtept lat="44.40067" lon="6.23895">
        <ele>1165.1</ele>
        <name><![CDATA[ D1]]></name>
      </rtept>
      <rtept lat="44.39869" lon="6.23865">
        <ele>1140.9</ele>
        <name><![CDATA[ D11]]></name>
      </rtept>
      <rtept lat="44.40291" lon="6.25098">
        <ele>1063.7</ele>
        <name><![CDATA[Chemin2]]></name>
      </rtept>
      <rtept lat="44.40374" lon="6.24612">
        <ele>1045.4</ele>
        <name><![CDATA[1040 m]]></name>
      </rtept>
      <rtept lat="44.40693" lon="6.24888">
        <ele>1048.8</ele>
        <name><![CDATA[Les Garcinets]]></name>
      </rtept>
      <rtept lat="44.41221" lon="6.25032">
        <ele>1135.6</ele>
        <name><![CDATA[Chemin3]]></name>
      </rtept>
      <rtept lat="44.42356" lon="6.24315">
        <ele>1164.8</ele>
        <name><![CDATA[Chemin4]]></name>
      </rtept>
      <rtept lat="44.42463" lon="6.24403">
        <ele>1185</ele>
        <name><![CDATA[Chemin5]]></name>
      </rtept>
      <rtept lat="44.42625" lon="6.23592">
        <ele>1275.9</ele>
        <name><![CDATA[Chemin6]]></name>
      </rtept>
      <rtept lat="44.42667" lon="6.23508">
        <ele>1280.1</ele>
        <name><![CDATA[Chemin et Sentier]]></name>
      </rtept>
      <rtept lat="44.4312" lon="6.23534">
        <ele>1290.1</ele>
        <name><![CDATA[Chemin7]]></name>
      </rtept>
      <rtept lat="44.44397" lon="6.22708">
        <ele>1338.7</ele>
        <name><![CDATA[Montagne de la Scie]]></name>
      </rtept>
      <rtept lat="44.42667" lon="6.23508">
        <ele>1280.1</ele>
        <name><![CDATA[Chemin et Sentier]]></name>
      </rtept>
      <rtept lat="44.42723" lon="6.23032">
        <ele>1206.9</ele>
        <name><![CDATA[Chemin8]]></name>
      </rtept>
      <rtept lat="44.42586" lon="6.2269">
        <ele>1170</ele>
        <name><![CDATA[Chemin9]]></name>
      </rtept>
      <rtept lat="44.42442" lon="6.22173">
        <ele>1108.6</ele>
        <name><![CDATA[Chemin10]]></name>
      </rtept>
      <rtept lat="44.42809" lon="6.21906">
        <ele>998.8</ele>
        <name><![CDATA[Chemin11]]></name>
      </rtept>
      <rtept lat="44.4259" lon="6.21131">
        <ele>914.6</ele>
        <name><![CDATA[Chemin]]></name>
      </rtept>
      <rtept lat="44.42841" lon="6.19863">
        <ele>852.4</ele>
        <name><![CDATA[ D10 et Route]]></name>
      </rtept>
    </rte>
</gpx>